KLM702 SAEZ-EHAM
Flight info
| Callsign | KLM702 |
|---|---|
| Flight time | 13h 13m |
| Altitude | 31000 |
| Route | DORVO1E DORVO UN857 OGRUN DCT NIGBI UZ121 PENSO UZ5 SEKPO DCT KADAG/N0503F330 UZ2 SLI DCT MAVKO DCT GOGSO DCT GARPO/M084F350 DCT TEGTO DCT SORAD DCT 35N022W 40N019W/M084F370 DCT GONAN DCT TAMEL DCT EVBAK DCT GAPLI/N0482F370 DCT GAJIT DCT ENHAQ DCT REDFA |
| Aircraft | B77W/H-SDE1E2E3FGHIJ2J3J4J5M1RWXY/LB1D1 |
Departure
| Time | 2026-04-26 17:43 |
|---|---|
| Airport | Ezeiza International Airport - Ministro Pistarini (SAEZ) |
Arrival
| Time | 2026-04-27 06:56 |
|---|---|
| Airport | Amsterdam Airport Schiphol (EHAM) |
| Time | Latitude | Longitude | Altitude | Speed | Heading |
|---|---|---|---|---|---|
| 2026-04-26 16:44 | -34.81643 | -58.54484 | 75 ft | 0 kts | 13° |
| 2026-04-26 17:29 | -34.81666 | -58.54490 | 65 ft | 4 kts | 11° |
| 2026-04-26 17:29 | -34.81693 | -58.54495 | 64 ft | 4 kts | 6° |
| 2026-04-26 17:30 | -34.81720 | -58.54499 | 64 ft | 4 kts | 13° |
| 2026-04-26 17:30 | -34.81741 | -58.54510 | 64 ft | 3 kts | 44° |
| 2026-04-26 17:30 | -34.81752 | -58.54536 | 64 ft | 4 kts | 90° |
| 2026-04-26 17:30 | -34.81751 | -58.54562 | 64 ft | 0 kts | 88° |
| 2026-04-26 17:35 | -34.81751 | -58.54556 | 64 ft | 2 kts | 88° |
| 2026-04-26 17:35 | -34.81751 | -58.54535 | 64 ft | 3 kts | 89° |
| 2026-04-26 17:35 | -34.81751 | -58.54500 | 65 ft | 5 kts | 91° |
| 2026-04-26 17:36 | -34.81754 | -58.54454 | 68 ft | 6 kts | 96° |
| 2026-04-26 17:36 | -34.81759 | -58.54398 | 72 ft | 7 kts | 98° |
| 2026-04-26 17:36 | -34.81767 | -58.54332 | 68 ft | 9 kts | 97° |
| 2026-04-26 17:36 | -34.81775 | -58.54256 | 73 ft | 9 kts | 98° |
| 2026-04-26 17:37 | -34.81786 | -58.54173 | 69 ft | 11 kts | 99° |
| 2026-04-26 17:37 | -34.81792 | -58.54081 | 67 ft | 11 kts | 84° |
| 2026-04-26 17:37 | -34.81764 | -58.53985 | 63 ft | 13 kts | 62° |
| 2026-04-26 17:38 | -34.81720 | -58.53760 | 66 ft | 16 kts | 118° |
| 2026-04-26 17:38 | -34.81811 | -58.53684 | 67 ft | 16 kts | 154° |
| 2026-04-26 17:38 | -34.81901 | -58.53602 | 66 ft | 17 kts | 121° |
| 2026-04-26 17:38 | -34.81937 | -58.53462 | 66 ft | 18 kts | 104° |
| 2026-04-26 17:39 | -34.81967 | -58.53312 | 64 ft | 19 kts | 104° |
| 2026-04-26 17:39 | -34.81999 | -58.53153 | 64 ft | 20 kts | 104° |
| 2026-04-26 17:39 | -34.82031 | -58.52991 | 72 ft | 20 kts | 103° |
| 2026-04-26 17:39 | -34.82063 | -58.52829 | 69 ft | 20 kts | 103° |
| 2026-04-26 17:40 | -34.82095 | -58.52668 | 65 ft | 20 kts | 103° |
| 2026-04-26 17:40 | -34.82106 | -58.52614 | 71 ft | 20 kts | 104° |
| 2026-04-26 17:40 | -34.82160 | -58.52345 | 71 ft | 20 kts | 103° |
| 2026-04-26 17:40 | -34.82192 | -58.52184 | 66 ft | 20 kts | 103° |
| 2026-04-26 17:41 | -34.82224 | -58.52022 | 65 ft | 20 kts | 103° |
| 2026-04-26 17:41 | -34.82257 | -58.51862 | 63 ft | 18 kts | 104° |
| 2026-04-26 17:41 | -34.82328 | -58.51785 | 65 ft | 15 kts | 176° |
| 2026-04-26 17:41 | -34.82428 | -58.51810 | 64 ft | 15 kts | 194° |
| 2026-04-26 17:42 | -34.82509 | -58.51878 | 64 ft | 15 kts | 242° |
| 2026-04-26 17:42 | -34.82505 | -58.52006 | 70 ft | 18 kts | 279° |
| 2026-04-26 17:42 | -34.82432 | -58.52407 | 66 ft | 88 kts | 282° |
| 2026-04-26 17:42 | -34.82245 | -58.53455 | 73 ft | 163 kts | 282° |
| 2026-04-26 17:43 | -34.81980 | -58.54959 | 471 ft | 191 kts | 281° |
| 2026-04-26 17:43 | -34.81704 | -58.56533 | 1462 ft | 181 kts | 278° |
| 2026-04-26 17:43 | -34.81436 | -58.58052 | 2212 ft | 191 kts | 276° |
| 2026-04-26 17:43 | -34.81157 | -58.59720 | 2390 ft | 208 kts | 272° |
| 2026-04-26 17:44 | -34.81365 | -58.61451 | 2715 ft | 212 kts | 244° |
| 2026-04-26 17:44 | -34.82250 | -58.62900 | 3163 ft | 220 kts | 228° |
| 2026-04-26 17:44 | -34.83343 | -58.64274 | 3572 ft | 230 kts | 224° |
| 2026-04-26 17:44 | -34.84801 | -58.65168 | 4007 ft | 247 kts | 194° |
| 2026-04-26 17:45 | -34.86564 | -58.65129 | 4666 ft | 261 kts | 175° |
| 2026-04-26 17:45 | -34.88309 | -58.64361 | 5332 ft | 276 kts | 156° |
| 2026-04-26 17:45 | -34.89783 | -58.62775 | 6011 ft | 293 kts | 130° |
| 2026-04-26 17:45 | -34.90582 | -58.60439 | 6563 ft | 310 kts | 99° |
| 2026-04-26 17:46 | -34.90429 | -58.57797 | 7034 ft | 317 kts | 79° |
| 2026-04-26 17:46 | -34.89963 | -58.55133 | 7503 ft | 324 kts | 78° |
| 2026-04-26 17:46 | -34.89473 | -58.52438 | 8112 ft | 328 kts | 78° |
| 2026-04-26 17:46 | -34.88974 | -58.49710 | 8713 ft | 332 kts | 78° |
| 2026-04-26 17:47 | -34.88472 | -58.46939 | 9305 ft | 336 kts | 77° |
| 2026-04-26 17:47 | -34.88310 | -58.46037 | 9489 ft | 338 kts | 78° |
| 2026-04-26 17:47 | -34.87465 | -58.41286 | 10244 ft | 353 kts | 77° |
| 2026-04-26 17:47 | -34.86937 | -58.38292 | 10387 ft | 372 kts | 78° |
| 2026-04-26 17:48 | -34.86573 | -58.36213 | 10503 ft | 385 kts | 78° |
| 2026-04-26 17:48 | -34.85810 | -58.31848 | 10727 ft | 410 kts | 78° |
| 2026-04-26 17:48 | -34.85208 | -58.28399 | 11116 ft | 422 kts | 78° |
| 2026-04-26 17:48 | -34.84592 | -58.24868 | 11656 ft | 430 kts | 77° |
| 2026-04-26 17:49 | -34.83967 | -58.21280 | 12253 ft | 436 kts | 77° |
| 2026-04-26 17:49 | -34.83333 | -58.17647 | 12835 ft | 443 kts | 77° |
| 2026-04-26 17:49 | -34.82897 | -58.15157 | 13198 ft | 448 kts | 76° |
| 2026-04-26 17:49 | -34.82241 | -58.11417 | 13757 ft | 455 kts | 76° |
| 2026-04-26 17:50 | -34.81574 | -58.07626 | 14233 ft | 462 kts | 76° |
| 2026-04-26 17:50 | -34.80895 | -58.03771 | 14681 ft | 470 kts | 76° |
| 2026-04-26 17:50 | -34.80201 | -57.99842 | 15131 ft | 479 kts | 76° |
| 2026-04-26 17:50 | -34.79495 | -57.95849 | 15592 ft | 486 kts | 76° |
| 2026-04-26 17:51 | -34.78778 | -57.91800 | 16018 ft | 493 kts | 75° |
| 2026-04-26 17:51 | -34.78051 | -57.87703 | 16624 ft | 499 kts | 75° |
| 2026-04-26 17:51 | -34.77311 | -57.83542 | 17075 ft | 507 kts | 75° |
| 2026-04-26 17:51 | -34.76558 | -57.79319 | 17487 ft | 515 kts | 75° |
| 2026-04-26 17:52 | -34.75789 | -57.75019 | 17928 ft | 523 kts | 74° |
| 2026-04-26 17:52 | -34.75011 | -57.70669 | 18337 ft | 530 kts | 74° |
| 2026-04-26 17:52 | -34.74225 | -57.66270 | 18841 ft | 533 kts | 74° |
| 2026-04-26 17:52 | -34.73437 | -57.61875 | 19429 ft | 533 kts | 74° |
| 2026-04-26 17:53 | -34.72596 | -57.57484 | 20036 ft | 531 kts | 69° |
| 2026-04-26 17:53 | -34.71365 | -57.53328 | 20461 ft | 529 kts | 59° |
| 2026-04-26 17:53 | -34.69653 | -57.49329 | 20905 ft | 526 kts | 51° |
| 2026-04-26 17:54 | -34.65333 | -57.42371 | 21806 ft | 518 kts | 39° |
| 2026-04-26 17:54 | -34.62967 | -57.39045 | 22174 ft | 522 kts | 40° |
| 2026-04-26 17:54 | -34.60597 | -57.35693 | 22707 ft | 523 kts | 40° |
| 2026-04-26 17:54 | -34.58242 | -57.32328 | 23281 ft | 524 kts | 41° |
| 2026-04-26 17:55 | -34.55882 | -57.28933 | 23658 ft | 528 kts | 41° |
| 2026-04-26 17:55 | -34.53514 | -57.25512 | 24014 ft | 532 kts | 41° |
| 2026-04-26 17:55 | -34.51135 | -57.22068 | 24397 ft | 534 kts | 41° |
| 2026-04-26 17:55 | -34.48744 | -57.18607 | 24804 ft | 536 kts | 41° |
| 2026-04-26 17:56 | -34.46352 | -57.15148 | 25204 ft | 537 kts | 41° |
| 2026-04-26 17:56 | -34.41531 | -57.08194 | 26045 ft | 538 kts | 41° |
| 2026-04-26 17:57 | -34.36709 | -57.01255 | 26884 ft | 540 kts | 41° |
| 2026-04-26 17:57 | -34.34281 | -56.97775 | 27136 ft | 544 kts | 41° |
| 2026-04-26 17:57 | -34.31834 | -56.94266 | 27424 ft | 547 kts | 41° |
| 2026-04-26 17:57 | -34.29375 | -56.90738 | 27751 ft | 549 kts | 41° |
| 2026-04-26 17:58 | -34.21970 | -56.80151 | 28792 ft | 548 kts | 41° |
| 2026-04-26 17:59 | -34.17036 | -56.73131 | 29492 ft | 549 kts | 41° |
| 2026-04-26 17:59 | -34.14562 | -56.69617 | 29797 ft | 550 kts | 41° |
| 2026-04-26 17:59 | -34.12086 | -56.66101 | 30102 ft | 549 kts | 41° |
| 2026-04-26 17:59 | -34.09611 | -56.62589 | 30377 ft | 549 kts | 40° |
| 2026-04-26 18:00 | -34.07138 | -56.59082 | 30628 ft | 550 kts | 40° |
| 2026-04-26 18:00 | -34.04652 | -56.55562 | 30761 ft | 552 kts | 40° |
| 2026-04-26 18:00 | -33.99678 | -56.48525 | 30856 ft | 549 kts | 40° |
| 2026-04-26 18:01 | -33.94739 | -56.41546 | 30844 ft | 546 kts | 40° |
| 2026-04-26 18:01 | -33.89816 | -56.34613 | 30848 ft | 544 kts | 40° |
| 2026-04-26 18:02 | -33.85714 | -56.28878 | 30832 ft | 543 kts | 39° |
| 2026-04-26 18:02 | -33.79920 | -56.20885 | 30845 ft | 543 kts | 39° |
| 2026-04-26 18:03 | -33.74978 | -56.14012 | 30853 ft | 544 kts | 40° |
| 2026-04-26 18:03 | -33.70046 | -56.07098 | 30846 ft | 545 kts | 40° |
| 2026-04-26 18:04 | -33.65111 | -56.00193 | 30848 ft | 546 kts | 40° |
| 2026-04-26 18:05 | -33.57678 | -55.89837 | 30843 ft | 546 kts | 40° |
| 2026-04-26 18:05 | -33.52710 | -55.82936 | 30843 ft | 546 kts | 40° |
| 2026-04-26 18:06 | -33.47747 | -55.76054 | 30769 ft | 546 kts | 39° |
| 2026-04-26 18:06 | -33.42790 | -55.69192 | 30833 ft | 544 kts | 39° |
| 2026-04-26 18:07 | -33.37865 | -55.62389 | 30837 ft | 544 kts | 39° |
| 2026-04-26 18:07 | -33.32904 | -55.55553 | 30844 ft | 544 kts | 39° |
| 2026-04-26 18:08 | -33.27939 | -55.48720 | 30826 ft | 545 kts | 39° |
| 2026-04-26 18:08 | -33.22971 | -55.41896 | 30836 ft | 544 kts | 39° |
| 2026-04-26 18:09 | -33.17994 | -55.35073 | 30834 ft | 545 kts | 39° |
| 2026-04-26 18:09 | -33.13012 | -55.28257 | 30844 ft | 545 kts | 39° |
| 2026-04-26 18:10 | -33.08020 | -55.21439 | 30815 ft | 545 kts | 39° |
| 2026-04-26 18:10 | -33.03028 | -55.14633 | 30829 ft | 546 kts | 39° |
| 2026-04-26 18:11 | -32.98029 | -55.07831 | 30837 ft | 546 kts | 39° |
| 2026-04-26 18:11 | -32.93012 | -55.01018 | 30831 ft | 547 kts | 39° |
| 2026-04-26 18:12 | -32.87995 | -54.94218 | 30820 ft | 547 kts | 39° |
| 2026-04-26 18:12 | -32.82977 | -54.87428 | 30827 ft | 547 kts | 39° |
| 2026-04-26 18:13 | -32.77953 | -54.80641 | 30826 ft | 547 kts | 39° |
| 2026-04-26 18:13 | -32.72930 | -54.73870 | 30793 ft | 546 kts | 39° |
| 2026-04-26 18:14 | -32.67908 | -54.67111 | 30802 ft | 545 kts | 38° |
| 2026-04-26 18:14 | -32.62890 | -54.60371 | 30806 ft | 545 kts | 38° |
| 2026-04-26 18:15 | -32.57867 | -54.53638 | 30817 ft | 545 kts | 38° |
| 2026-04-26 18:15 | -32.52837 | -54.46909 | 30805 ft | 545 kts | 38° |
| 2026-04-26 18:16 | -32.47802 | -54.40181 | 30827 ft | 546 kts | 38° |
| 2026-04-26 18:16 | -32.40239 | -54.30100 | 30825 ft | 546 kts | 38° |
| 2026-04-26 18:17 | -32.35194 | -54.23389 | 30812 ft | 546 kts | 38° |
| 2026-04-26 18:17 | -32.30163 | -54.16645 | 30754 ft | 547 kts | 38° |
| 2026-04-26 18:18 | -32.25169 | -54.09865 | 30796 ft | 547 kts | 38° |
| 2026-04-26 18:18 | -32.20203 | -54.03143 | 30811 ft | 547 kts | 38° |
| 2026-04-26 18:19 | -32.15193 | -53.96391 | 30802 ft | 547 kts | 37° |
| 2026-04-26 18:19 | -32.10168 | -53.89632 | 30812 ft | 547 kts | 37° |
| 2026-04-26 18:20 | -32.04842 | -53.83412 | 30816 ft | 531 kts | 27° |
| 2026-04-26 18:20 | -32.01943 | -53.80809 | 30830 ft | 519 kts | 20° |
| 2026-04-26 18:20 | -32.00922 | -53.80018 | 30832 ft | 516 kts | 20° |
| 2026-04-26 18:21 | -31.92884 | -53.73898 | 30794 ft | 518 kts | 20° |
| 2026-04-26 18:21 | -31.86864 | -53.69241 | 30827 ft | 519 kts | 20° |
| 2026-04-26 18:22 | -31.80848 | -53.64561 | 30843 ft | 519 kts | 20° |
| 2026-04-26 18:22 | -31.74823 | -53.59877 | 30834 ft | 519 kts | 20° |
| 2026-04-26 18:23 | -31.68803 | -53.55207 | 30843 ft | 519 kts | 20° |
| 2026-04-26 18:23 | -31.62784 | -53.50545 | 30801 ft | 517 kts | 20° |
| 2026-04-26 18:24 | -31.56786 | -53.45906 | 30847 ft | 516 kts | 20° |
| 2026-04-26 18:24 | -31.50784 | -53.41281 | 30837 ft | 517 kts | 20° |
| 2026-04-26 18:25 | -31.44773 | -53.36653 | 30850 ft | 517 kts | 20° |
| 2026-04-26 18:25 | -31.38751 | -53.32020 | 30847 ft | 518 kts | 20° |
| 2026-04-26 18:26 | -31.32730 | -53.27396 | 30836 ft | 518 kts | 20° |
| 2026-04-26 18:26 | -31.26707 | -53.22778 | 30844 ft | 517 kts | 19° |
| 2026-04-26 18:27 | -31.20689 | -53.18168 | 30843 ft | 517 kts | 19° |
| 2026-04-26 18:27 | -31.14670 | -53.13568 | 30853 ft | 517 kts | 19° |
| 2026-04-26 18:28 | -31.08638 | -53.08967 | 30850 ft | 518 kts | 19° |
| 2026-04-26 18:28 | -31.02604 | -53.04370 | 30835 ft | 518 kts | 19° |
| 2026-04-26 18:29 | -30.96576 | -52.99779 | 30842 ft | 517 kts | 19° |
| 2026-04-26 18:29 | -30.90571 | -52.95216 | 30851 ft | 516 kts | 19° |
| 2026-04-26 18:30 | -30.84552 | -52.90650 | 30855 ft | 516 kts | 19° |
| 2026-04-26 18:30 | -30.78584 | -52.86130 | 30860 ft | 515 kts | 19° |
| 2026-04-26 18:31 | -30.72551 | -52.81566 | 30873 ft | 512 kts | 19° |
| 2026-04-26 18:31 | -30.66561 | -52.77053 | 30869 ft | 514 kts | 19° |
| 2026-04-26 18:32 | -30.60590 | -52.72547 | 30854 ft | 516 kts | 19° |
| 2026-04-26 18:32 | -30.54573 | -52.68015 | 30868 ft | 516 kts | 19° |
| 2026-04-26 18:33 | -30.48536 | -52.63479 | 30868 ft | 517 kts | 19° |
| 2026-04-26 18:33 | -30.42508 | -52.58948 | 30862 ft | 517 kts | 19° |
| 2026-04-26 18:34 | -30.36474 | -52.54428 | 30872 ft | 516 kts | 19° |
| 2026-04-26 18:34 | -30.31422 | -52.50649 | 30838 ft | 516 kts | 19° |
| 2026-04-26 18:35 | -30.25439 | -52.46174 | 30866 ft | 515 kts | 19° |
| 2026-04-26 18:35 | -30.19420 | -52.41683 | 30868 ft | 515 kts | 18° |
| 2026-04-26 18:36 | -30.13397 | -52.37196 | 30830 ft | 515 kts | 18° |
| 2026-04-26 18:36 | -30.07379 | -52.32716 | 30862 ft | 515 kts | 18° |
| 2026-04-26 18:37 | -30.01357 | -52.28243 | 30856 ft | 515 kts | 18° |
| 2026-04-26 18:37 | -29.95326 | -52.23768 | 30864 ft | 516 kts | 18° |
| 2026-04-26 18:38 | -29.89294 | -52.19300 | 30871 ft | 516 kts | 18° |
| 2026-04-26 18:38 | -29.83257 | -52.14833 | 30847 ft | 516 kts | 19° |
| 2026-04-26 18:39 | -29.77220 | -52.10372 | 30862 ft | 516 kts | 18° |
| 2026-04-26 18:39 | -29.71178 | -52.05915 | 30870 ft | 515 kts | 18° |
| 2026-04-26 18:40 | -29.65145 | -52.01471 | 30876 ft | 515 kts | 19° |
| 2026-04-26 18:40 | -29.59114 | -51.97034 | 30874 ft | 515 kts | 19° |
| 2026-04-26 18:41 | -29.53083 | -51.92606 | 30830 ft | 514 kts | 19° |
| 2026-04-26 18:41 | -29.47061 | -51.88188 | 30878 ft | 514 kts | 19° |
| 2026-04-26 18:42 | -29.41028 | -51.83771 | 30870 ft | 515 kts | 19° |
| 2026-04-26 18:42 | -29.34989 | -51.79355 | 30862 ft | 516 kts | 19° |
| 2026-04-26 18:43 | -29.29005 | -51.74976 | 30871 ft | 513 kts | 19° |
| 2026-04-26 18:43 | -29.22989 | -51.70508 | 30851 ft | 518 kts | 20° |
| 2026-04-26 18:44 | -29.16988 | -51.65930 | 30889 ft | 519 kts | 20° |
| 2026-04-26 18:44 | -29.10973 | -51.61369 | 30899 ft | 519 kts | 20° |
| 2026-04-26 18:45 | -29.04929 | -51.56815 | 30867 ft | 520 kts | 20° |
| 2026-04-26 18:45 | -28.98880 | -51.52271 | 30873 ft | 520 kts | 20° |
| 2026-04-26 18:46 | -28.92853 | -51.47742 | 30828 ft | 518 kts | 21° |
| 2026-04-26 18:46 | -28.86848 | -51.43241 | 30885 ft | 517 kts | 21° |
| 2026-04-26 18:47 | -28.80825 | -51.38739 | 30887 ft | 518 kts | 20° |
| 2026-04-26 18:47 | -28.74794 | -51.34232 | 30896 ft | 518 kts | 21° |
| 2026-04-26 18:48 | -28.68757 | -51.29724 | 30894 ft | 519 kts | 21° |
| 2026-04-26 18:48 | -28.62704 | -51.25210 | 30859 ft | 521 kts | 21° |
| 2026-04-26 18:49 | -28.56637 | -51.20693 | 30888 ft | 521 kts | 21° |
| 2026-04-26 18:49 | -28.50565 | -51.16180 | 30909 ft | 522 kts | 21° |
| 2026-04-26 18:50 | -28.44472 | -51.11655 | 30895 ft | 523 kts | 21° |
| 2026-04-26 18:50 | -28.38378 | -51.07135 | 30912 ft | 524 kts | 21° |
| 2026-04-26 18:51 | -28.32271 | -51.02613 | 30860 ft | 524 kts | 21° |
| 2026-04-26 18:51 | -28.26163 | -50.98097 | 30906 ft | 524 kts | 21° |
| 2026-04-26 18:52 | -28.20057 | -50.93588 | 30912 ft | 524 kts | 21° |
| 2026-04-26 18:52 | -28.13985 | -50.89109 | 30914 ft | 525 kts | 21° |
| 2026-04-26 18:53 | -28.07854 | -50.84641 | 30914 ft | 520 kts | 19° |
| 2026-04-26 18:53 | -28.01429 | -50.81226 | 30878 ft | 503 kts | 8° |
| 2026-04-26 18:54 | -27.94807 | -50.79061 | 30903 ft | 494 kts | 3° |
| 2026-04-26 18:54 | -27.88142 | -50.77036 | 30917 ft | 498 kts | 4° |
| 2026-04-26 18:55 | -27.81447 | -50.74952 | 30924 ft | 500 kts | 4° |
| 2026-04-26 18:55 | -27.74734 | -50.72844 | 30899 ft | 501 kts | 5° |
| 2026-04-26 18:56 | -27.68015 | -50.70736 | 30917 ft | 501 kts | 5° |
| 2026-04-26 18:56 | -27.61308 | -50.68640 | 30923 ft | 500 kts | 5° |
| 2026-04-26 18:57 | -27.55733 | -50.66902 | 30924 ft | 500 kts | 5° |
| 2026-04-26 18:57 | -27.47896 | -50.64460 | 30905 ft | 500 kts | 5° |
| 2026-04-26 18:58 | -27.41198 | -50.62376 | 30918 ft | 500 kts | 5° |
| 2026-04-26 18:58 | -27.34489 | -50.60294 | 30925 ft | 500 kts | 5° |
| 2026-04-26 18:59 | -27.27785 | -50.58211 | 30924 ft | 500 kts | 5° |
| 2026-04-26 18:59 | -27.21117 | -50.56144 | 30915 ft | 501 kts | 5° |
| 2026-04-26 19:00 | -27.14396 | -50.54059 | 30922 ft | 502 kts | 5° |
| 2026-04-26 19:00 | -27.07665 | -50.51969 | 30929 ft | 502 kts | 5° |
| 2026-04-26 19:01 | -27.00927 | -50.49889 | 30921 ft | 503 kts | 5° |
| 2026-04-26 19:01 | -26.94177 | -50.47815 | 30922 ft | 503 kts | 5° |
| 2026-04-26 19:02 | -26.87426 | -50.45740 | 30924 ft | 503 kts | 6° |
| 2026-04-26 19:02 | -26.81816 | -50.44017 | 30927 ft | 503 kts | 6° |
| 2026-04-26 19:03 | -26.73925 | -50.41595 | 30908 ft | 503 kts | 6° |
| 2026-04-26 19:03 | -26.67182 | -50.39528 | 30913 ft | 501 kts | 6° |
| 2026-04-26 19:04 | -26.60470 | -50.37475 | 30916 ft | 500 kts | 6° |
| 2026-04-26 19:04 | -26.53767 | -50.35426 | 30923 ft | 499 kts | 6° |
| 2026-04-26 19:05 | -26.43721 | -50.32348 | 30900 ft | 499 kts | 7° |
| 2026-04-26 19:06 | -26.37019 | -50.30295 | 30914 ft | 500 kts | 7° |
| 2026-04-26 19:06 | -26.30303 | -50.28242 | 30926 ft | 501 kts | 7° |
| 2026-04-26 19:07 | -26.23561 | -50.26184 | 30924 ft | 503 kts | 7° |
| 2026-04-26 19:07 | -26.16809 | -50.24125 | 30915 ft | 503 kts | 8° |
| 2026-04-26 19:08 | -26.10055 | -50.22065 | 30932 ft | 503 kts | 8° |
| 2026-04-26 19:08 | -26.03359 | -50.20026 | 30936 ft | 502 kts | 8° |
| 2026-04-26 19:09 | -25.96629 | -50.17981 | 30932 ft | 501 kts | 8° |
| 2026-04-26 19:09 | -25.89914 | -50.15943 | 30916 ft | 500 kts | 8° |
| 2026-04-26 19:10 | -25.83208 | -50.13908 | 30931 ft | 499 kts | 8° |
| 2026-04-26 19:10 | -25.76516 | -50.11882 | 30947 ft | 499 kts | 8° |
| 2026-04-26 19:11 | -25.69817 | -50.09859 | 30939 ft | 499 kts | 8° |
| 2026-04-26 19:11 | -25.63118 | -50.07837 | 30937 ft | 499 kts | 9° |
| 2026-04-26 19:12 | -25.56405 | -50.05812 | 30948 ft | 500 kts | 9° |
| 2026-04-26 19:12 | -25.49685 | -50.03820 | 30947 ft | 500 kts | 8° |
| 2026-04-26 19:13 | -25.42958 | -50.01845 | 30946 ft | 500 kts | 8° |
| 2026-04-26 19:13 | -25.36248 | -49.99870 | 30939 ft | 500 kts | 8° |
| 2026-04-26 19:14 | -25.29516 | -49.97888 | 30952 ft | 500 kts | 8° |
| 2026-04-26 19:14 | -25.22794 | -49.95891 | 30952 ft | 500 kts | 8° |
| 2026-04-26 19:15 | -25.16088 | -49.93894 | 30945 ft | 498 kts | 8° |
| 2026-04-26 19:15 | -25.09401 | -49.91932 | 30942 ft | 497 kts | 8° |
| 2026-04-26 19:16 | -25.02730 | -49.89977 | 30949 ft | 495 kts | 8° |
| 2026-04-26 19:16 | -24.96072 | -49.88024 | 30952 ft | 495 kts | 8° |
| 2026-04-26 19:17 | -24.89418 | -49.86075 | 30952 ft | 495 kts | 8° |
| 2026-04-26 19:17 | -24.82765 | -49.84127 | 30954 ft | 495 kts | 8° |
| 2026-04-26 19:18 | -24.76161 | -49.82169 | 30956 ft | 495 kts | 9° |
| 2026-04-26 19:18 | -24.69529 | -49.80109 | 30958 ft | 495 kts | 9° |
| 2026-04-26 19:19 | -24.62899 | -49.78046 | 30948 ft | 495 kts | 9° |
| 2026-04-26 19:19 | -24.56269 | -49.75999 | 30945 ft | 495 kts | 9° |
| 2026-04-26 19:20 | -24.49640 | -49.73959 | 30954 ft | 495 kts | 9° |
| 2026-04-26 19:20 | -24.43009 | -49.71937 | 30957 ft | 494 kts | 8° |
| 2026-04-26 19:21 | -24.36339 | -49.70204 | 30942 ft | 492 kts | 6° |
| 2026-04-26 19:21 | -24.29666 | -49.68551 | 30945 ft | 492 kts | 6° |
| 2026-04-26 19:22 | -24.22996 | -49.66848 | 30940 ft | 493 kts | 7° |
| 2026-04-26 19:22 | -24.16323 | -49.65124 | 30942 ft | 493 kts | 7° |
| 2026-04-26 19:23 | -24.10770 | -49.63691 | 30937 ft | 493 kts | 7° |
| 2026-04-26 19:23 | -24.04105 | -49.61938 | 30929 ft | 494 kts | 8° |
| 2026-04-26 19:24 | -23.97431 | -49.60053 | 30933 ft | 497 kts | 8° |
| 2026-04-26 19:24 | -23.87328 | -49.57207 | 30914 ft | 500 kts | 8° |
| 2026-04-26 19:25 | -23.81683 | -49.55630 | 30921 ft | 499 kts | 8° |
| 2026-04-26 19:25 | -23.73883 | -49.53456 | 30913 ft | 497 kts | 8° |
| 2026-04-26 19:26 | -23.67177 | -49.51600 | 30907 ft | 497 kts | 8° |
| 2026-04-26 19:26 | -23.60474 | -49.49711 | 30899 ft | 498 kts | 10° |
| 2026-04-26 19:27 | -23.53815 | -49.47574 | 30895 ft | 499 kts | 11° |
| 2026-04-26 19:27 | -23.47147 | -49.45428 | 30907 ft | 500 kts | 11° |
| 2026-04-26 19:28 | -23.40448 | -49.43427 | 30907 ft | 498 kts | 7° |
| 2026-04-26 19:28 | -23.33683 | -49.41815 | 30906 ft | 498 kts | 7° |
| 2026-04-26 19:29 | -23.26913 | -49.40209 | 30902 ft | 498 kts | 7° |
| 2026-04-26 19:29 | -23.20142 | -49.38566 | 30907 ft | 499 kts | 8° |
| 2026-04-26 19:30 | -23.13402 | -49.36723 | 30916 ft | 500 kts | 9° |
| 2026-04-26 19:30 | -23.07767 | -49.35118 | 30915 ft | 500 kts | 9° |
| 2026-04-26 19:31 | -22.99944 | -49.32932 | 30895 ft | 499 kts | 9° |
| 2026-04-26 19:31 | -22.93211 | -49.31071 | 30909 ft | 499 kts | 9° |
| 2026-04-26 19:32 | -22.86491 | -49.29217 | 30910 ft | 498 kts | 9° |
| 2026-04-26 19:32 | -22.79775 | -49.27379 | 30907 ft | 497 kts | 9° |
| 2026-04-26 19:33 | -22.73072 | -49.25547 | 30903 ft | 497 kts | 9° |
| 2026-04-26 19:33 | -22.66375 | -49.23716 | 30911 ft | 496 kts | 9° |
| 2026-04-26 19:34 | -22.59680 | -49.21887 | 30911 ft | 496 kts | 9° |
| 2026-04-26 19:34 | -22.53011 | -49.20037 | 30907 ft | 496 kts | 10° |
| 2026-04-26 19:35 | -22.46330 | -49.18097 | 30939 ft | 496 kts | 11° |
| 2026-04-26 19:35 | -22.39656 | -49.16172 | 30964 ft | 496 kts | 10° |
| 2026-04-26 19:36 | -22.34092 | -49.14699 | 30970 ft | 495 kts | 8° |
| 2026-04-26 19:36 | -22.26233 | -49.12822 | 30957 ft | 495 kts | 8° |
| 2026-04-26 19:37 | -22.19512 | -49.11181 | 30947 ft | 495 kts | 8° |
| 2026-04-26 19:37 | -22.12797 | -49.09517 | 30933 ft | 495 kts | 8° |
| 2026-04-26 19:38 | -22.06084 | -49.07860 | 30933 ft | 495 kts | 8° |
| 2026-04-26 19:38 | -21.99374 | -49.06212 | 30904 ft | 495 kts | 8° |
| 2026-04-26 19:39 | -21.92664 | -49.04565 | 30901 ft | 495 kts | 8° |
| 2026-04-26 19:39 | -21.85957 | -49.02918 | 30906 ft | 495 kts | 8° |
| 2026-04-26 19:40 | -21.79244 | -49.01271 | 30904 ft | 495 kts | 8° |
| 2026-04-26 19:40 | -21.72538 | -48.99622 | 30904 ft | 495 kts | 8° |
| 2026-04-26 19:41 | -21.65829 | -48.97966 | 30893 ft | 494 kts | 8° |
| 2026-04-26 19:41 | -21.60216 | -48.96982 | 30906 ft | 491 kts | 4° |
| 2026-04-26 19:42 | -21.52359 | -48.95773 | 30906 ft | 491 kts | 4° |
| 2026-04-26 19:42 | -21.45596 | -48.94708 | 30904 ft | 491 kts | 4° |
| 2026-04-26 19:43 | -21.38833 | -48.93627 | 30899 ft | 491 kts | 5° |
| 2026-04-26 19:43 | -21.32074 | -48.92548 | 30904 ft | 491 kts | 5° |
| 2026-04-26 19:44 | -21.25315 | -48.91471 | 30906 ft | 491 kts | 4° |
| 2026-04-26 19:44 | -21.18552 | -48.90394 | 30911 ft | 491 kts | 5° |
| 2026-04-26 19:45 | -21.11798 | -48.89312 | 30905 ft | 491 kts | 5° |
| 2026-04-26 19:45 | -21.05042 | -48.88228 | 30915 ft | 491 kts | 5° |
| 2026-04-26 19:46 | -20.98293 | -48.87148 | 30916 ft | 490 kts | 5° |
| 2026-04-26 19:46 | -20.91550 | -48.86070 | 30916 ft | 490 kts | 5° |
| 2026-04-26 19:47 | -20.85944 | -48.85175 | 30918 ft | 490 kts | 5° |
| 2026-04-26 19:47 | -20.78069 | -48.83917 | 30923 ft | 489 kts | 5° |
| 2026-04-26 19:48 | -20.71338 | -48.82842 | 30917 ft | 489 kts | 5° |
| 2026-04-26 19:48 | -20.64612 | -48.81821 | 30927 ft | 487 kts | 3° |
| 2026-04-26 19:49 | -20.57864 | -48.81155 | 30918 ft | 486 kts | 2° |
| 2026-04-26 19:49 | -20.51127 | -48.80523 | 30922 ft | 486 kts | 2° |
| 2026-04-26 19:50 | -20.44389 | -48.79832 | 30929 ft | 486 kts | 2° |
| 2026-04-26 19:50 | -20.37652 | -48.79122 | 30923 ft | 487 kts | 2° |
| 2026-04-26 19:51 | -20.30913 | -48.78415 | 30925 ft | 486 kts | 3° |
| 2026-04-26 19:51 | -20.24173 | -48.77711 | 30922 ft | 486 kts | 3° |
| 2026-04-26 19:52 | -20.17443 | -48.77010 | 30925 ft | 486 kts | 3° |
| 2026-04-26 19:52 | -20.10706 | -48.76308 | 30920 ft | 486 kts | 3° |
| 2026-04-26 19:53 | -20.03968 | -48.75606 | 30928 ft | 486 kts | 3° |
| 2026-04-26 19:53 | -19.97232 | -48.74905 | 30928 ft | 486 kts | 3° |
| 2026-04-26 19:54 | -19.90498 | -48.74205 | 30921 ft | 486 kts | 3° |
| 2026-04-26 19:54 | -19.83763 | -48.73505 | 30924 ft | 486 kts | 3° |
| 2026-04-26 19:55 | -19.77075 | -48.72811 | 30928 ft | 486 kts | 3° |
| 2026-04-26 19:55 | -19.70341 | -48.72112 | 30930 ft | 486 kts | 3° |
| 2026-04-26 19:56 | -19.63615 | -48.71416 | 30931 ft | 486 kts | 3° |
| 2026-04-26 19:56 | -19.56883 | -48.70718 | 30931 ft | 486 kts | 3° |
| 2026-04-26 19:57 | -19.50156 | -48.70022 | 30933 ft | 486 kts | 3° |
| 2026-04-26 19:57 | -19.43428 | -48.69327 | 30937 ft | 486 kts | 3° |
| 2026-04-26 19:58 | -19.36701 | -48.68632 | 30934 ft | 486 kts | 3° |
| 2026-04-26 19:58 | -19.29973 | -48.67938 | 30938 ft | 486 kts | 4° |
| 2026-04-26 19:59 | -19.23248 | -48.67244 | 30935 ft | 485 kts | 4° |
| 2026-04-26 19:59 | -19.16524 | -48.66552 | 30940 ft | 485 kts | 4° |
| 2026-04-26 20:00 | -19.09800 | -48.65922 | 30941 ft | 485 kts | 3° |
| 2026-04-26 20:00 | -19.03076 | -48.65326 | 30938 ft | 485 kts | 3° |
| 2026-04-26 20:01 | -18.96349 | -48.64721 | 30945 ft | 486 kts | 3° |
| 2026-04-26 20:01 | -18.89609 | -48.64109 | 30945 ft | 486 kts | 3° |
| 2026-04-26 20:02 | -18.82860 | -48.63495 | 30947 ft | 487 kts | 3° |
| 2026-04-26 20:02 | -18.78389 | -48.63088 | 30945 ft | 487 kts | 4° |
| 2026-04-26 20:03 | -18.69354 | -48.62268 | 30949 ft | 487 kts | 4° |
| 2026-04-26 20:03 | -18.62596 | -48.61651 | 30947 ft | 487 kts | 4° |
| 2026-04-26 20:04 | -18.55840 | -48.61026 | 30943 ft | 487 kts | 4° |
| 2026-04-26 20:04 | -18.49084 | -48.60403 | 30941 ft | 487 kts | 4° |
| 2026-04-26 20:05 | -18.42335 | -48.59780 | 30947 ft | 487 kts | 4° |
| 2026-04-26 20:05 | -18.35586 | -48.59159 | 30944 ft | 487 kts | 4° |
| 2026-04-26 20:06 | -18.29973 | -48.58643 | 30942 ft | 487 kts | 4° |
| 2026-04-26 20:06 | -18.22129 | -48.57938 | 30939 ft | 487 kts | 4° |
| 2026-04-26 20:07 | -18.15380 | -48.57338 | 30939 ft | 487 kts | 4° |
| 2026-04-26 20:07 | -18.08630 | -48.56737 | 30936 ft | 487 kts | 4° |
| 2026-04-26 20:08 | -18.02970 | -48.56231 | 30941 ft | 487 kts | 4° |
| 2026-04-26 20:08 | -17.96212 | -48.55628 | 30941 ft | 487 kts | 4° |
| 2026-04-26 20:09 | -17.89456 | -48.55026 | 30940 ft | 487 kts | 4° |
| 2026-04-26 20:09 | -17.82702 | -48.54424 | 30941 ft | 487 kts | 4° |
| 2026-04-26 20:10 | -17.75946 | -48.53822 | 30936 ft | 487 kts | 4° |
| 2026-04-26 20:10 | -17.69198 | -48.53225 | 30940 ft | 487 kts | 4° |
| 2026-04-26 20:11 | -17.62487 | -48.52656 | 30940 ft | 487 kts | 4° |
| 2026-04-26 20:12 | -17.52359 | -48.51808 | 30935 ft | 487 kts | 4° |
| 2026-04-26 20:12 | -17.45609 | -48.51239 | 30942 ft | 487 kts | 4° |
| 2026-04-26 20:13 | -17.38811 | -48.50665 | 30941 ft | 487 kts | 4° |
| 2026-04-26 20:13 | -17.32050 | -48.50095 | 30945 ft | 487 kts | 4° |
| 2026-04-26 20:14 | -17.25288 | -48.49525 | 30945 ft | 488 kts | 4° |
| 2026-04-26 20:14 | -17.18569 | -48.48960 | 30952 ft | 488 kts | 5° |
| 2026-04-26 20:15 | -17.11802 | -48.48391 | 30950 ft | 488 kts | 5° |
| 2026-04-26 20:15 | -17.05038 | -48.47823 | 30953 ft | 488 kts | 5° |
| 2026-04-26 20:16 | -16.98227 | -48.47250 | 30954 ft | 488 kts | 5° |
| 2026-04-26 20:16 | -16.91502 | -48.46686 | 30952 ft | 488 kts | 5° |
| 2026-04-26 20:17 | -16.84736 | -48.46119 | 30958 ft | 488 kts | 5° |
| 2026-04-26 20:17 | -16.77922 | -48.45547 | 30955 ft | 488 kts | 5° |
| 2026-04-26 20:18 | -16.71155 | -48.44980 | 30958 ft | 488 kts | 5° |
| 2026-04-26 20:18 | -16.64501 | -48.43882 | 30960 ft | 488 kts | 12° |
| 2026-04-26 20:19 | -16.57882 | -48.42351 | 30957 ft | 488 kts | 12° |
| 2026-04-26 20:19 | -16.51246 | -48.40837 | 30960 ft | 488 kts | 12° |
| 2026-04-26 20:20 | -16.44606 | -48.39348 | 30959 ft | 488 kts | 12° |
| 2026-04-26 20:20 | -16.37970 | -48.37870 | 30963 ft | 488 kts | 12° |
| 2026-04-26 20:21 | -16.31320 | -48.36390 | 30962 ft | 488 kts | 12° |
| 2026-04-26 20:21 | -16.24676 | -48.34910 | 30968 ft | 488 kts | 12° |
| 2026-04-26 20:22 | -16.18032 | -48.33430 | 30967 ft | 488 kts | 12° |
| 2026-04-26 20:22 | -16.11392 | -48.31954 | 30971 ft | 488 kts | 12° |
| 2026-04-26 20:23 | -16.04749 | -48.30478 | 30970 ft | 488 kts | 12° |
| 2026-04-26 20:23 | -15.98102 | -48.29001 | 30969 ft | 488 kts | 12° |
| 2026-04-26 20:24 | -15.91455 | -48.27525 | 30974 ft | 488 kts | 12° |
| 2026-04-26 20:24 | -15.84817 | -48.26052 | 30982 ft | 488 kts | 12° |
| 2026-04-26 20:25 | -15.78171 | -48.24579 | 30982 ft | 488 kts | 13° |
| 2026-04-26 20:25 | -15.71525 | -48.23106 | 30977 ft | 488 kts | 13° |
| 2026-04-26 20:26 | -15.64892 | -48.21638 | 30959 ft | 488 kts | 13° |
| 2026-04-26 20:26 | -15.58240 | -48.20166 | 30964 ft | 488 kts | 13° |
| 2026-04-26 20:27 | -15.51586 | -48.18695 | 30957 ft | 489 kts | 13° |
| 2026-04-26 20:27 | -15.45053 | -48.16802 | 30962 ft | 487 kts | 20° |
| 2026-04-26 20:28 | -15.38661 | -48.14442 | 30949 ft | 488 kts | 20° |
| 2026-04-26 20:28 | -15.32267 | -48.12094 | 30945 ft | 488 kts | 20° |
| 2026-04-26 20:29 | -15.25862 | -48.09770 | 30947 ft | 488 kts | 20° |
| 2026-04-26 20:29 | -15.19450 | -48.07456 | 30947 ft | 488 kts | 20° |
| 2026-04-26 20:30 | -15.13039 | -48.05145 | 30945 ft | 488 kts | 20° |
| 2026-04-26 20:30 | -15.06631 | -48.02835 | 30948 ft | 488 kts | 20° |
| 2026-04-26 20:31 | -15.00266 | -48.00542 | 30953 ft | 487 kts | 20° |
| 2026-04-26 20:31 | -14.93862 | -47.98235 | 30949 ft | 488 kts | 20° |
| 2026-04-26 20:32 | -14.87449 | -47.95927 | 30952 ft | 488 kts | 20° |
| 2026-04-26 20:32 | -14.81036 | -47.93621 | 30956 ft | 488 kts | 20° |
| 2026-04-26 20:33 | -14.74622 | -47.91315 | 30954 ft | 488 kts | 20° |
| 2026-04-26 20:33 | -14.68202 | -47.89009 | 30957 ft | 489 kts | 20° |
| 2026-04-26 20:34 | -14.61774 | -47.86701 | 30955 ft | 489 kts | 20° |
| 2026-04-26 20:34 | -14.55347 | -47.84395 | 30947 ft | 489 kts | 20° |
| 2026-04-26 20:35 | -14.48920 | -47.82090 | 30946 ft | 489 kts | 20° |
| 2026-04-26 20:35 | -14.42494 | -47.79788 | 30957 ft | 489 kts | 20° |
| 2026-04-26 20:36 | -14.36065 | -47.77487 | 30954 ft | 489 kts | 20° |
| 2026-04-26 20:36 | -14.29629 | -47.75183 | 30957 ft | 490 kts | 20° |
| 2026-04-26 20:37 | -14.23183 | -47.72878 | 30951 ft | 490 kts | 20° |
| 2026-04-26 20:37 | -14.16744 | -47.70576 | 30954 ft | 490 kts | 20° |
| 2026-04-26 20:38 | -14.10293 | -47.68271 | 30952 ft | 490 kts | 20° |
| 2026-04-26 20:38 | -14.03850 | -47.65970 | 30950 ft | 490 kts | 20° |
| 2026-04-26 20:39 | -13.97404 | -47.63670 | 30952 ft | 490 kts | 20° |
| 2026-04-26 20:39 | -13.90953 | -47.61370 | 30961 ft | 490 kts | 20° |
| 2026-04-26 20:40 | -13.84508 | -47.59073 | 30956 ft | 490 kts | 20° |
| 2026-04-26 20:40 | -13.78064 | -47.56778 | 30956 ft | 490 kts | 20° |
| 2026-04-26 20:41 | -13.71622 | -47.54484 | 30963 ft | 490 kts | 20° |
| 2026-04-26 20:41 | -13.65177 | -47.52191 | 30949 ft | 490 kts | 20° |
| 2026-04-26 20:42 | -13.58731 | -47.49900 | 30947 ft | 490 kts | 20° |
| 2026-04-26 20:42 | -13.52332 | -47.47626 | 30944 ft | 490 kts | 20° |
| 2026-04-26 20:43 | -13.45876 | -47.45333 | 30944 ft | 491 kts | 20° |
| 2026-04-26 20:43 | -13.39415 | -47.43039 | 30938 ft | 492 kts | 20° |
| 2026-04-26 20:44 | -13.32949 | -47.40745 | 30935 ft | 492 kts | 20° |
| 2026-04-26 20:44 | -13.26481 | -47.38453 | 30929 ft | 492 kts | 20° |
| 2026-04-26 20:45 | -13.20013 | -47.36160 | 30918 ft | 491 kts | 20° |
| 2026-04-26 20:45 | -13.13554 | -47.33872 | 30923 ft | 491 kts | 20° |
| 2026-04-26 20:46 | -13.07092 | -47.31585 | 30919 ft | 491 kts | 20° |
| 2026-04-26 20:46 | -13.00630 | -47.29299 | 30909 ft | 491 kts | 20° |
| 2026-04-26 20:47 | -12.94168 | -47.27014 | 30916 ft | 491 kts | 20° |
| 2026-04-26 20:47 | -12.87711 | -47.24733 | 30916 ft | 491 kts | 20° |
| 2026-04-26 20:48 | -12.81251 | -47.22451 | 30918 ft | 491 kts | 20° |
| 2026-04-26 20:48 | -12.74782 | -47.20168 | 30910 ft | 491 kts | 20° |
| 2026-04-26 20:49 | -12.68317 | -47.17886 | 30910 ft | 491 kts | 20° |
| 2026-04-26 20:49 | -12.61854 | -47.15608 | 30909 ft | 491 kts | 20° |
| 2026-04-26 20:50 | -12.55392 | -47.13331 | 30907 ft | 492 kts | 20° |
| 2026-04-26 20:50 | -12.48921 | -47.11051 | 30906 ft | 492 kts | 20° |
| 2026-04-26 20:51 | -12.42453 | -47.08774 | 30909 ft | 492 kts | 20° |
| 2026-04-26 20:51 | -12.37073 | -47.06881 | 30908 ft | 492 kts | 20° |
| 2026-04-26 20:52 | -12.30596 | -47.04602 | 30905 ft | 492 kts | 20° |
| 2026-04-26 20:52 | -12.24122 | -47.02327 | 30906 ft | 492 kts | 20° |
| 2026-04-26 20:53 | -12.17638 | -47.00048 | 30908 ft | 492 kts | 20° |
| 2026-04-26 20:53 | -12.11155 | -46.97772 | 30910 ft | 493 kts | 20° |
| 2026-04-26 20:54 | -12.04676 | -46.95497 | 30907 ft | 493 kts | 20° |
| 2026-04-26 20:54 | -11.98189 | -46.93221 | 30909 ft | 493 kts | 20° |
| 2026-04-26 20:55 | -11.91696 | -46.90952 | 30909 ft | 493 kts | 20° |
| 2026-04-26 20:55 | -11.85135 | -46.88841 | 31156 ft | 495 kts | 18° |
| 2026-04-26 20:55 | -11.81842 | -46.87818 | 31479 ft | 493 kts | 18° |
| 2026-04-26 20:56 | -11.78565 | -46.86801 | 31784 ft | 492 kts | 18° |
| 2026-04-26 20:56 | -11.75298 | -46.85781 | 32078 ft | 490 kts | 18° |
| 2026-04-26 20:56 | -11.72038 | -46.84757 | 32360 ft | 490 kts | 18° |
| 2026-04-26 20:56 | -11.68786 | -46.83730 | 32612 ft | 489 kts | 18° |
| 2026-04-26 20:57 | -11.65531 | -46.82700 | 32813 ft | 489 kts | 18° |
| 2026-04-26 20:57 | -11.59013 | -46.80635 | 32930 ft | 490 kts | 18° |
| 2026-04-26 20:58 | -11.52494 | -46.78571 | 32928 ft | 489 kts | 18° |
| 2026-04-26 20:58 | -11.46001 | -46.76517 | 32922 ft | 489 kts | 18° |
| 2026-04-26 20:59 | -11.39507 | -46.74464 | 32918 ft | 489 kts | 18° |
| 2026-04-26 20:59 | -11.33014 | -46.72412 | 32929 ft | 489 kts | 18° |
| 2026-04-26 21:00 | -11.26546 | -46.70369 | 32930 ft | 490 kts | 18° |
| 2026-04-26 21:00 | -11.20026 | -46.68311 | 32931 ft | 491 kts | 18° |
| 2026-04-26 21:01 | -11.13499 | -46.66252 | 32921 ft | 492 kts | 18° |
| 2026-04-26 21:01 | -11.06961 | -46.64191 | 32922 ft | 492 kts | 18° |
| 2026-04-26 21:02 | -11.00422 | -46.62129 | 32927 ft | 492 kts | 18° |
| 2026-04-26 21:02 | -10.93878 | -46.60067 | 32920 ft | 492 kts | 18° |
| 2026-04-26 21:03 | -10.87337 | -46.58007 | 32920 ft | 492 kts | 18° |
| 2026-04-26 21:03 | -10.80793 | -46.55948 | 32921 ft | 492 kts | 18° |
| 2026-04-26 21:04 | -10.74256 | -46.53891 | 32913 ft | 492 kts | 18° |
| 2026-04-26 21:04 | -10.67719 | -46.51835 | 32909 ft | 492 kts | 18° |
| 2026-04-26 21:05 | -10.61186 | -46.49781 | 32913 ft | 491 kts | 18° |
| 2026-04-26 21:05 | -10.54655 | -46.47729 | 32914 ft | 491 kts | 18° |
| 2026-04-26 21:06 | -10.48124 | -46.45677 | 32907 ft | 491 kts | 18° |
| 2026-04-26 21:06 | -10.41594 | -46.43627 | 32915 ft | 491 kts | 18° |
| 2026-04-26 21:07 | -10.35067 | -46.41579 | 32909 ft | 491 kts | 19° |
| 2026-04-26 21:07 | -10.28531 | -46.39528 | 32914 ft | 491 kts | 19° |
| 2026-04-26 21:08 | -10.22001 | -46.37480 | 32914 ft | 491 kts | 19° |
| 2026-04-26 21:08 | -10.15463 | -46.35449 | 32914 ft | 491 kts | 18° |
| 2026-04-26 21:09 | -10.08881 | -46.33559 | 32906 ft | 492 kts | 17° |
| 2026-04-26 21:09 | -10.02328 | -46.31720 | 32915 ft | 492 kts | 17° |
| 2026-04-26 21:10 | -9.95738 | -46.29853 | 32917 ft | 491 kts | 17° |
| 2026-04-26 21:10 | -9.89160 | -46.27976 | 32916 ft | 491 kts | 17° |
| 2026-04-26 21:11 | -9.82583 | -46.26096 | 32916 ft | 491 kts | 18° |
| 2026-04-26 21:11 | -9.76008 | -46.24218 | 32918 ft | 491 kts | 18° |
| 2026-04-26 21:12 | -9.69421 | -46.22338 | 32912 ft | 491 kts | 18° |
| 2026-04-26 21:12 | -9.62843 | -46.20462 | 32913 ft | 491 kts | 17° |
| 2026-04-26 21:13 | -9.56264 | -46.18587 | 32914 ft | 491 kts | 17° |
| 2026-04-26 21:13 | -9.49702 | -46.16717 | 32914 ft | 491 kts | 18° |
| 2026-04-26 21:14 | -9.43121 | -46.14842 | 32915 ft | 491 kts | 18° |
| 2026-04-26 21:14 | -9.36547 | -46.12970 | 32919 ft | 491 kts | 18° |
| 2026-04-26 21:15 | -9.29977 | -46.11100 | 32913 ft | 491 kts | 18° |
| 2026-04-26 21:15 | -9.23410 | -46.09231 | 32920 ft | 490 kts | 18° |
| 2026-04-26 21:16 | -9.16842 | -46.07362 | 32912 ft | 490 kts | 18° |
| 2026-04-26 21:16 | -9.10280 | -46.05496 | 32909 ft | 489 kts | 18° |
| 2026-04-26 21:17 | -9.03735 | -46.03620 | 32919 ft | 489 kts | 18° |
| 2026-04-26 21:17 | -8.97191 | -46.01737 | 32924 ft | 488 kts | 18° |
| 2026-04-26 21:18 | -8.90662 | -45.99859 | 32909 ft | 487 kts | 18° |
| 2026-04-26 21:18 | -8.84188 | -45.98000 | 32910 ft | 486 kts | 18° |
| 2026-04-26 21:19 | -8.77683 | -45.96132 | 32920 ft | 485 kts | 18° |
| 2026-04-26 21:19 | -8.71188 | -45.94269 | 32917 ft | 485 kts | 18° |
| 2026-04-26 21:20 | -8.64707 | -45.92410 | 32908 ft | 484 kts | 18° |
| 2026-04-26 21:20 | -8.58232 | -45.90554 | 32918 ft | 483 kts | 18° |
| 2026-04-26 21:21 | -8.51764 | -45.88699 | 32918 ft | 483 kts | 18° |
| 2026-04-26 21:21 | -8.45296 | -45.86846 | 32916 ft | 483 kts | 18° |
| 2026-04-26 21:22 | -8.38829 | -45.84994 | 32919 ft | 483 kts | 18° |
| 2026-04-26 21:22 | -8.32359 | -45.83141 | 32907 ft | 484 kts | 18° |
| 2026-04-26 21:23 | -8.22645 | -45.80360 | 32916 ft | 484 kts | 18° |
| 2026-04-26 21:23 | -8.16158 | -45.78504 | 32919 ft | 484 kts | 18° |
| 2026-04-26 21:24 | -8.09665 | -45.76665 | 32913 ft | 485 kts | 17° |
| 2026-04-26 21:24 | -8.03157 | -45.74855 | 32908 ft | 485 kts | 17° |
| 2026-04-26 21:25 | -7.96641 | -45.73045 | 32915 ft | 486 kts | 17° |
| 2026-04-26 21:25 | -7.90170 | -45.71242 | 32912 ft | 486 kts | 17° |
| 2026-04-26 21:26 | -7.83607 | -45.69412 | 32906 ft | 486 kts | 17° |
| 2026-04-26 21:26 | -7.77126 | -45.67605 | 32911 ft | 486 kts | 17° |
| 2026-04-26 21:27 | -7.70600 | -45.65786 | 32907 ft | 487 kts | 17° |
| 2026-04-26 21:27 | -7.64072 | -45.63968 | 32904 ft | 487 kts | 17° |
| 2026-04-26 21:28 | -7.57546 | -45.62151 | 32903 ft | 487 kts | 18° |
| 2026-04-26 21:28 | -7.51017 | -45.60333 | 32901 ft | 486 kts | 18° |
| 2026-04-26 21:29 | -7.44495 | -45.58518 | 32901 ft | 486 kts | 18° |
| 2026-04-26 21:29 | -7.37979 | -45.56705 | 32908 ft | 486 kts | 17° |
| 2026-04-26 21:30 | -7.31473 | -45.54895 | 32898 ft | 485 kts | 18° |
| 2026-04-26 21:30 | -7.26075 | -45.53394 | 32901 ft | 484 kts | 18° |
| 2026-04-26 21:31 | -7.18533 | -45.51298 | 32904 ft | 484 kts | 18° |
| 2026-04-26 21:31 | -7.12042 | -45.49494 | 32904 ft | 484 kts | 18° |
| 2026-04-26 21:32 | -7.05560 | -45.47693 | 32907 ft | 483 kts | 18° |
| 2026-04-26 21:32 | -6.99061 | -45.45888 | 32910 ft | 485 kts | 17° |
| 2026-04-26 21:33 | -6.92551 | -45.44080 | 32922 ft | 486 kts | 17° |
| 2026-04-26 21:33 | -6.86019 | -45.42267 | 32922 ft | 488 kts | 17° |
| 2026-04-26 21:34 | -6.79468 | -45.40449 | 32922 ft | 489 kts | 17° |
| 2026-04-26 21:34 | -6.72902 | -45.38628 | 32924 ft | 490 kts | 17° |
| 2026-04-26 21:35 | -6.66336 | -45.36807 | 32927 ft | 489 kts | 17° |
| 2026-04-26 21:35 | -6.59772 | -45.34987 | 32926 ft | 489 kts | 17° |
| 2026-04-26 21:36 | -6.54327 | -45.33478 | 32929 ft | 488 kts | 17° |
| 2026-04-26 21:36 | -6.46679 | -45.31358 | 32926 ft | 488 kts | 17° |
| 2026-04-26 21:37 | -6.40132 | -45.29544 | 32933 ft | 488 kts | 17° |
| 2026-04-26 21:37 | -6.33580 | -45.27729 | 32928 ft | 489 kts | 17° |
| 2026-04-26 21:38 | -6.27026 | -45.25914 | 32932 ft | 490 kts | 17° |
| 2026-04-26 21:38 | -6.20439 | -45.24090 | 32927 ft | 491 kts | 17° |
| 2026-04-26 21:39 | -6.13858 | -45.22248 | 32926 ft | 492 kts | 18° |
| 2026-04-26 21:39 | -6.08373 | -45.20707 | 32927 ft | 492 kts | 17° |
| 2026-04-26 21:40 | -6.01773 | -45.18855 | 32925 ft | 493 kts | 18° |
| 2026-04-26 21:40 | -5.95174 | -45.17006 | 32923 ft | 493 kts | 18° |
| 2026-04-26 21:41 | -5.88568 | -45.15151 | 32922 ft | 492 kts | 18° |
| 2026-04-26 21:41 | -5.81980 | -45.13285 | 32923 ft | 492 kts | 18° |
| 2026-04-26 21:42 | -5.75391 | -45.11416 | 32918 ft | 492 kts | 18° |
| 2026-04-26 21:42 | -5.68809 | -45.09552 | 32922 ft | 492 kts | 18° |
| 2026-04-26 21:43 | -5.62222 | -45.07688 | 32921 ft | 492 kts | 18° |
| 2026-04-26 21:43 | -5.55638 | -45.05825 | 32921 ft | 492 kts | 18° |
| 2026-04-26 21:44 | -5.49053 | -45.03963 | 32922 ft | 491 kts | 18° |
| 2026-04-26 21:44 | -5.42468 | -45.02100 | 32923 ft | 492 kts | 18° |
| 2026-04-26 21:45 | -5.35888 | -45.00240 | 32918 ft | 492 kts | 18° |
| 2026-04-26 21:45 | -5.29343 | -44.98390 | 32922 ft | 492 kts | 18° |
| 2026-04-26 21:46 | -5.22746 | -44.96526 | 32924 ft | 492 kts | 18° |
| 2026-04-26 21:46 | -5.16150 | -44.94662 | 32926 ft | 492 kts | 18° |
| 2026-04-26 21:47 | -5.09556 | -44.92799 | 32926 ft | 493 kts | 18° |
| 2026-04-26 21:47 | -5.02958 | -44.90936 | 32920 ft | 493 kts | 18° |
| 2026-04-26 21:48 | -4.96355 | -44.89071 | 32922 ft | 493 kts | 18° |
| 2026-04-26 21:48 | -4.89747 | -44.87206 | 32922 ft | 493 kts | 18° |
| 2026-04-26 21:49 | -4.83139 | -44.85341 | 32919 ft | 493 kts | 18° |
| 2026-04-26 21:49 | -4.76526 | -44.83474 | 32926 ft | 494 kts | 18° |
| 2026-04-26 21:50 | -4.69914 | -44.81609 | 32920 ft | 494 kts | 18° |
| 2026-04-26 21:50 | -4.63302 | -44.79744 | 32918 ft | 494 kts | 18° |
| 2026-04-26 21:51 | -4.56692 | -44.77880 | 32917 ft | 493 kts | 18° |
| 2026-04-26 21:51 | -4.50088 | -44.76018 | 32921 ft | 493 kts | 18° |
| 2026-04-26 21:52 | -4.43481 | -44.74155 | 32920 ft | 493 kts | 18° |
| 2026-04-26 21:52 | -4.36919 | -44.72305 | 32918 ft | 493 kts | 18° |
| 2026-04-26 21:53 | -4.30270 | -44.70431 | 32917 ft | 493 kts | 18° |
| 2026-04-26 21:53 | -4.23633 | -44.68667 | 32923 ft | 494 kts | 16° |
| 2026-04-26 21:54 | -4.16953 | -44.67026 | 32920 ft | 494 kts | 16° |
| 2026-04-26 21:54 | -4.10274 | -44.65371 | 32917 ft | 494 kts | 16° |
| 2026-04-26 21:55 | -4.03604 | -44.63696 | 32925 ft | 494 kts | 17° |
| 2026-04-26 21:55 | -3.96981 | -44.62028 | 32920 ft | 494 kts | 17° |
| 2026-04-26 21:56 | -3.90321 | -44.60350 | 32920 ft | 493 kts | 17° |
| 2026-04-26 21:56 | -3.83701 | -44.58525 | 32921 ft | 493 kts | 18° |
| 2026-04-26 21:57 | -3.77114 | -44.56651 | 32924 ft | 492 kts | 18° |
| 2026-04-26 21:57 | -3.70515 | -44.54801 | 32919 ft | 492 kts | 18° |
| 2026-04-26 21:58 | -3.63917 | -44.52963 | 32923 ft | 492 kts | 18° |
| 2026-04-26 21:58 | -3.57318 | -44.51134 | 32926 ft | 492 kts | 18° |
| 2026-04-26 21:59 | -3.50716 | -44.49325 | 32926 ft | 492 kts | 18° |
| 2026-04-26 21:59 | -3.44110 | -44.47512 | 32928 ft | 492 kts | 18° |
| 2026-04-26 22:00 | -3.37502 | -44.45695 | 32934 ft | 493 kts | 18° |
| 2026-04-26 22:00 | -3.30890 | -44.43878 | 32935 ft | 493 kts | 18° |
| 2026-04-26 22:01 | -3.24278 | -44.42054 | 32940 ft | 493 kts | 17° |
| 2026-04-26 22:01 | -3.17668 | -44.40227 | 32933 ft | 493 kts | 17° |
| 2026-04-26 22:02 | -3.12175 | -44.38709 | 32939 ft | 493 kts | 17° |
| 2026-04-26 22:02 | -3.04450 | -44.36576 | 32939 ft | 492 kts | 17° |
| 2026-04-26 22:03 | -2.97847 | -44.34752 | 32939 ft | 492 kts | 17° |
| 2026-04-26 22:03 | -2.91248 | -44.32930 | 32939 ft | 492 kts | 17° |
| 2026-04-26 22:04 | -2.84692 | -44.31120 | 32940 ft | 492 kts | 17° |
| 2026-04-26 22:04 | -2.78054 | -44.29288 | 32940 ft | 492 kts | 17° |
| 2026-04-26 22:05 | -2.71452 | -44.27465 | 32943 ft | 492 kts | 17° |
| 2026-04-26 22:05 | -2.64862 | -44.25646 | 32937 ft | 491 kts | 17° |
| 2026-04-26 22:06 | -2.58421 | -44.23578 | 32937 ft | 488 kts | 25° |
| 2026-04-26 22:06 | -2.52419 | -44.20475 | 32946 ft | 485 kts | 31° |
| 2026-04-26 22:07 | -2.46550 | -44.17137 | 32939 ft | 486 kts | 31° |
| 2026-04-26 22:07 | -2.40662 | -44.13818 | 32943 ft | 486 kts | 31° |
| 2026-04-26 22:08 | -2.34770 | -44.10520 | 32938 ft | 485 kts | 31° |
| 2026-04-26 22:08 | -2.28875 | -44.07230 | 32940 ft | 485 kts | 31° |
| 2026-04-26 22:09 | -2.22979 | -44.03939 | 32942 ft | 485 kts | 31° |
| 2026-04-26 22:09 | -2.17082 | -44.00647 | 32941 ft | 485 kts | 31° |
| 2026-04-26 22:10 | -2.11188 | -43.97356 | 32946 ft | 485 kts | 31° |
| 2026-04-26 22:10 | -2.05291 | -43.94063 | 32948 ft | 486 kts | 31° |
| 2026-04-26 22:11 | -1.99387 | -43.90767 | 32946 ft | 486 kts | 31° |
| 2026-04-26 22:11 | -1.93484 | -43.87472 | 32945 ft | 486 kts | 31° |
| 2026-04-26 22:12 | -1.87579 | -43.84176 | 32947 ft | 486 kts | 31° |
| 2026-04-26 22:12 | -1.81670 | -43.80878 | 32951 ft | 486 kts | 31° |
| 2026-04-26 22:13 | -1.75759 | -43.77579 | 32945 ft | 487 kts | 31° |
| 2026-04-26 22:13 | -1.69890 | -43.74304 | 32945 ft | 487 kts | 31° |
| 2026-04-26 22:14 | -1.63974 | -43.71003 | 32946 ft | 487 kts | 31° |
| 2026-04-26 22:14 | -1.58061 | -43.67703 | 32948 ft | 487 kts | 31° |
| 2026-04-26 22:15 | -1.52146 | -43.64403 | 32951 ft | 487 kts | 31° |
| 2026-04-26 22:15 | -1.46229 | -43.61102 | 32952 ft | 487 kts | 31° |
| 2026-04-26 22:16 | -1.40316 | -43.57803 | 32948 ft | 487 kts | 31° |
| 2026-04-26 22:16 | -1.34402 | -43.54504 | 32947 ft | 487 kts | 31° |
| 2026-04-26 22:17 | -1.28481 | -43.51201 | 32951 ft | 487 kts | 31° |
| 2026-04-26 22:17 | -1.22564 | -43.47901 | 32952 ft | 487 kts | 31° |
| 2026-04-26 22:18 | -1.16638 | -43.44596 | 32951 ft | 487 kts | 31° |
| 2026-04-26 22:18 | -1.10752 | -43.41313 | 32954 ft | 488 kts | 31° |
| 2026-04-26 22:19 | -1.04828 | -43.38009 | 32953 ft | 487 kts | 31° |
| 2026-04-26 22:19 | -0.98907 | -43.34707 | 32953 ft | 487 kts | 31° |
| 2026-04-26 22:20 | -0.93944 | -43.31940 | 32956 ft | 487 kts | 31° |
| 2026-04-26 22:20 | -0.87068 | -43.28106 | 32956 ft | 487 kts | 31° |
| 2026-04-26 22:21 | -0.81152 | -43.24807 | 32954 ft | 487 kts | 31° |
| 2026-04-26 22:21 | -0.75240 | -43.21510 | 32953 ft | 487 kts | 31° |
| 2026-04-26 22:22 | -0.69327 | -43.18213 | 32956 ft | 487 kts | 31° |
| 2026-04-26 22:22 | -0.63413 | -43.14916 | 32957 ft | 487 kts | 31° |
| 2026-04-26 22:23 | -0.57501 | -43.11619 | 32959 ft | 487 kts | 31° |
| 2026-04-26 22:23 | -0.51593 | -43.08325 | 32958 ft | 487 kts | 32° |
| 2026-04-26 22:24 | -0.45679 | -43.05028 | 32959 ft | 487 kts | 32° |
| 2026-04-26 22:24 | -0.39763 | -43.01730 | 32960 ft | 487 kts | 32° |
| 2026-04-26 22:25 | -0.33844 | -42.98430 | 32961 ft | 487 kts | 32° |
| 2026-04-26 22:25 | -0.27922 | -42.95129 | 32958 ft | 487 kts | 32° |
| 2026-04-26 22:26 | -0.22045 | -42.91852 | 32958 ft | 487 kts | 32° |
| 2026-04-26 22:26 | -0.16088 | -42.88531 | 32959 ft | 487 kts | 32° |
| 2026-04-26 22:27 | -0.10210 | -42.85255 | 32960 ft | 487 kts | 32° |
| 2026-04-26 22:27 | -0.04291 | -42.81955 | 32958 ft | 487 kts | 32° |
| 2026-04-26 22:28 | 0.01630 | -42.78654 | 32960 ft | 487 kts | 32° |
| 2026-04-26 22:28 | 0.06551 | -42.75910 | 32962 ft | 487 kts | 32° |
| 2026-04-26 22:29 | 0.12468 | -42.72612 | 32959 ft | 487 kts | 32° |
| 2026-04-26 22:29 | 0.18392 | -42.69309 | 32960 ft | 488 kts | 32° |
| 2026-04-26 22:30 | 0.24322 | -42.66004 | 32960 ft | 488 kts | 32° |
| 2026-04-26 22:30 | 0.30249 | -42.62699 | 32959 ft | 488 kts | 32° |
| 2026-04-26 22:31 | 0.36181 | -42.59393 | 32965 ft | 488 kts | 32° |
| 2026-04-26 22:31 | 0.42119 | -42.56082 | 32961 ft | 489 kts | 32° |
| 2026-04-26 22:32 | 0.48057 | -42.52771 | 32960 ft | 489 kts | 32° |
| 2026-04-26 22:32 | 0.53998 | -42.49459 | 32958 ft | 489 kts | 32° |
| 2026-04-26 22:33 | 0.62911 | -42.44490 | 32961 ft | 489 kts | 32° |
| 2026-04-26 22:34 | 0.68858 | -42.41174 | 32963 ft | 489 kts | 32° |
| 2026-04-26 22:34 | 0.74806 | -42.37858 | 32966 ft | 489 kts | 32° |
| 2026-04-26 22:35 | 0.80748 | -42.34545 | 32964 ft | 490 kts | 32° |
| 2026-04-26 22:35 | 0.86700 | -42.31226 | 32960 ft | 490 kts | 32° |
| 2026-04-26 22:36 | 0.92647 | -42.27910 | 32962 ft | 490 kts | 32° |
| 2026-04-26 22:36 | 0.98595 | -42.24593 | 32965 ft | 489 kts | 32° |
| 2026-04-26 22:37 | 1.04542 | -42.21276 | 32966 ft | 490 kts | 32° |
| 2026-04-26 22:37 | 1.10491 | -42.17958 | 32963 ft | 490 kts | 32° |
| 2026-04-26 22:38 | 1.16435 | -42.14643 | 32964 ft | 490 kts | 32° |
| 2026-04-26 22:38 | 1.22382 | -42.11326 | 32968 ft | 490 kts | 32° |
| 2026-04-26 22:39 | 1.28335 | -42.08006 | 32965 ft | 490 kts | 32° |
| 2026-04-26 22:39 | 1.34285 | -42.04687 | 32968 ft | 490 kts | 32° |
| 2026-04-26 22:40 | 1.40237 | -42.01366 | 32970 ft | 490 kts | 32° |
| 2026-04-26 22:40 | 1.46193 | -41.98043 | 32966 ft | 490 kts | 32° |
| 2026-04-26 22:41 | 1.52151 | -41.94720 | 32969 ft | 491 kts | 32° |
| 2026-04-26 22:41 | 1.58111 | -41.91394 | 32971 ft | 491 kts | 32° |
| 2026-04-26 22:42 | 1.64074 | -41.88067 | 32972 ft | 491 kts | 32° |
| 2026-04-26 22:42 | 1.70038 | -41.84739 | 32969 ft | 491 kts | 32° |
| 2026-04-26 22:43 | 1.76007 | -41.81408 | 32969 ft | 492 kts | 32° |
| 2026-04-26 22:43 | 1.81984 | -41.78072 | 32974 ft | 492 kts | 32° |
| 2026-04-26 22:44 | 1.87964 | -41.74734 | 32975 ft | 492 kts | 32° |
| 2026-04-26 22:44 | 1.93948 | -41.71394 | 32975 ft | 492 kts | 32° |
| 2026-04-26 22:45 | 1.99932 | -41.68054 | 32972 ft | 492 kts | 32° |
| 2026-04-26 22:45 | 2.05906 | -41.64719 | 32972 ft | 492 kts | 32° |
| 2026-04-26 22:46 | 2.11890 | -41.61378 | 32973 ft | 492 kts | 32° |
| 2026-04-26 22:46 | 2.17872 | -41.58037 | 32977 ft | 492 kts | 32° |
| 2026-04-26 22:47 | 2.23809 | -41.54722 | 32979 ft | 492 kts | 32° |
| 2026-04-26 22:47 | 2.29788 | -41.51383 | 32967 ft | 492 kts | 32° |
| 2026-04-26 22:48 | 2.35759 | -41.48048 | 32974 ft | 492 kts | 32° |
| 2026-04-26 22:48 | 2.41724 | -41.44716 | 32980 ft | 492 kts | 32° |
| 2026-04-26 22:49 | 2.47701 | -41.41377 | 32979 ft | 492 kts | 32° |
| 2026-04-26 22:49 | 2.53674 | -41.38039 | 32973 ft | 492 kts | 32° |
| 2026-04-26 22:50 | 2.59650 | -41.34700 | 32981 ft | 492 kts | 32° |
| 2026-04-26 22:50 | 2.65627 | -41.31360 | 32978 ft | 492 kts | 32° |
| 2026-04-26 22:51 | 2.71609 | -41.28017 | 32982 ft | 492 kts | 32° |
| 2026-04-26 22:51 | 2.77586 | -41.24676 | 32981 ft | 492 kts | 32° |
| 2026-04-26 22:52 | 2.83569 | -41.21332 | 32977 ft | 492 kts | 32° |
| 2026-04-26 22:52 | 2.89546 | -41.17990 | 32973 ft | 492 kts | 32° |
| 2026-04-26 22:53 | 2.95530 | -41.14644 | 32980 ft | 493 kts | 32° |
| 2026-04-26 22:53 | 3.01515 | -41.11296 | 32979 ft | 493 kts | 32° |
| 2026-04-26 22:54 | 3.07500 | -41.07949 | 32981 ft | 493 kts | 32° |
| 2026-04-26 22:54 | 3.13448 | -41.04622 | 32979 ft | 493 kts | 32° |
| 2026-04-26 22:55 | 3.19444 | -41.01268 | 32982 ft | 493 kts | 32° |
| 2026-04-26 22:55 | 3.25434 | -40.97916 | 32978 ft | 493 kts | 32° |
| 2026-04-26 22:56 | 3.31427 | -40.94563 | 32983 ft | 493 kts | 32° |
| 2026-04-26 22:56 | 3.37418 | -40.91210 | 32978 ft | 493 kts | 32° |
| 2026-04-26 22:57 | 3.43410 | -40.87856 | 32977 ft | 493 kts | 32° |
| 2026-04-26 22:57 | 3.49393 | -40.84506 | 32986 ft | 492 kts | 32° |
| 2026-04-26 22:58 | 3.55367 | -40.81162 | 32977 ft | 491 kts | 32° |
| 2026-04-26 22:58 | 3.61327 | -40.77824 | 32979 ft | 490 kts | 32° |
| 2026-04-26 22:59 | 3.67278 | -40.74491 | 32978 ft | 490 kts | 32° |
| 2026-04-26 22:59 | 3.73220 | -40.71162 | 32988 ft | 489 kts | 32° |
| 2026-04-26 23:00 | 3.79157 | -40.67836 | 32993 ft | 489 kts | 32° |
| 2026-04-26 23:00 | 3.85086 | -40.64514 | 32983 ft | 488 kts | 32° |
| 2026-04-26 23:01 | 3.91001 | -40.61198 | 32990 ft | 488 kts | 32° |
| 2026-04-26 23:01 | 3.96925 | -40.57878 | 32987 ft | 487 kts | 32° |
| 2026-04-26 23:02 | 4.02800 | -40.54584 | 32988 ft | 487 kts | 32° |
| 2026-04-26 23:02 | 4.08714 | -40.51268 | 32979 ft | 488 kts | 32° |
| 2026-04-26 23:03 | 4.14639 | -40.47945 | 32990 ft | 488 kts | 32° |
| 2026-04-26 23:03 | 4.20566 | -40.44620 | 32988 ft | 489 kts | 32° |
| 2026-04-26 23:04 | 4.26500 | -40.41291 | 32990 ft | 489 kts | 32° |
| 2026-04-26 23:04 | 4.32440 | -40.37958 | 32989 ft | 489 kts | 32° |
| 2026-04-26 23:05 | 4.38385 | -40.34622 | 32984 ft | 490 kts | 32° |
| 2026-04-26 23:05 | 4.44328 | -40.31286 | 32990 ft | 490 kts | 32° |
| 2026-04-26 23:06 | 4.50274 | -40.27948 | 32991 ft | 490 kts | 32° |
| 2026-04-26 23:06 | 4.56219 | -40.24609 | 32992 ft | 490 kts | 32° |
| 2026-04-26 23:07 | 4.62165 | -40.21270 | 32986 ft | 490 kts | 32° |
| 2026-04-26 23:07 | 4.68109 | -40.17930 | 32988 ft | 490 kts | 32° |
| 2026-04-26 23:08 | 4.74050 | -40.14592 | 32990 ft | 490 kts | 32° |
| 2026-04-26 23:08 | 4.79998 | -40.11249 | 32989 ft | 490 kts | 32° |
| 2026-04-26 23:09 | 4.85949 | -40.07904 | 32989 ft | 490 kts | 32° |
| 2026-04-26 23:09 | 4.91903 | -40.04556 | 32988 ft | 491 kts | 32° |
| 2026-04-26 23:10 | 4.97859 | -40.01205 | 32983 ft | 491 kts | 31° |
| 2026-04-26 23:10 | 5.03908 | -39.98024 | 32991 ft | 492 kts | 28° |
| 2026-04-26 23:11 | 5.10076 | -39.95044 | 32995 ft | 492 kts | 28° |
| 2026-04-26 23:11 | 5.16255 | -39.92075 | 32991 ft | 492 kts | 28° |
| 2026-04-26 23:12 | 5.22427 | -39.89085 | 32993 ft | 492 kts | 28° |
| 2026-04-26 23:12 | 5.28592 | -39.86082 | 32989 ft | 492 kts | 28° |
| 2026-04-26 23:13 | 5.34755 | -39.83076 | 32995 ft | 492 kts | 28° |
| 2026-04-26 23:13 | 5.40875 | -39.80092 | 32995 ft | 492 kts | 28° |
| 2026-04-26 23:14 | 5.47037 | -39.77087 | 32994 ft | 492 kts | 28° |
| 2026-04-26 23:14 | 5.53188 | -39.74088 | 32997 ft | 492 kts | 28° |
| 2026-04-26 23:15 | 5.59343 | -39.71085 | 32997 ft | 491 kts | 28° |
| 2026-04-26 23:15 | 5.65488 | -39.68086 | 32997 ft | 491 kts | 28° |
| 2026-04-26 23:16 | 5.70638 | -39.65573 | 32995 ft | 491 kts | 28° |
| 2026-04-26 23:16 | 5.76733 | -39.62597 | 32998 ft | 491 kts | 28° |
| 2026-04-26 23:17 | 5.82878 | -39.59597 | 33000 ft | 491 kts | 28° |
| 2026-04-26 23:17 | 5.89020 | -39.56597 | 32993 ft | 491 kts | 28° |
| 2026-04-26 23:18 | 5.95164 | -39.53596 | 32997 ft | 491 kts | 28° |
| 2026-04-26 23:18 | 6.01303 | -39.50596 | 32997 ft | 491 kts | 28° |
| 2026-04-26 23:19 | 6.07444 | -39.47594 | 33000 ft | 491 kts | 28° |
| 2026-04-26 23:19 | 6.13584 | -39.44593 | 32997 ft | 491 kts | 28° |
| 2026-04-26 23:20 | 6.19712 | -39.41596 | 32996 ft | 491 kts | 28° |
| 2026-04-26 23:20 | 6.25858 | -39.38590 | 33003 ft | 491 kts | 28° |
| 2026-04-26 23:21 | 6.31997 | -39.35587 | 33000 ft | 491 kts | 28° |
| 2026-04-26 23:21 | 6.38141 | -39.32580 | 33002 ft | 491 kts | 28° |
| 2026-04-26 23:22 | 6.44274 | -39.29578 | 33004 ft | 490 kts | 28° |
| 2026-04-26 23:22 | 6.50405 | -39.26576 | 32996 ft | 490 kts | 28° |
| 2026-04-26 23:23 | 6.56528 | -39.23576 | 33004 ft | 490 kts | 28° |
| 2026-04-26 23:23 | 6.62658 | -39.20572 | 33007 ft | 490 kts | 28° |
| 2026-04-26 23:24 | 6.68791 | -39.17567 | 33006 ft | 490 kts | 28° |
| 2026-04-26 23:24 | 6.74923 | -39.14561 | 33004 ft | 491 kts | 28° |
| 2026-04-26 23:25 | 6.81065 | -39.11550 | 33005 ft | 491 kts | 27° |
| 2026-04-26 23:25 | 6.87201 | -39.08540 | 33004 ft | 490 kts | 27° |
| 2026-04-26 23:26 | 6.93328 | -39.05535 | 33005 ft | 490 kts | 28° |
| 2026-04-26 23:26 | 6.99446 | -39.02532 | 33006 ft | 489 kts | 27° |
| 2026-04-26 23:27 | 7.05560 | -38.99531 | 33006 ft | 489 kts | 28° |
| 2026-04-26 23:27 | 7.11679 | -38.96526 | 33010 ft | 489 kts | 27° |
| 2026-04-26 23:28 | 7.17797 | -38.93521 | 33009 ft | 490 kts | 27° |
| 2026-04-26 23:28 | 7.23921 | -38.90511 | 33010 ft | 490 kts | 28° |
| 2026-04-26 23:29 | 7.30049 | -38.87500 | 33009 ft | 490 kts | 28° |
| 2026-04-26 23:29 | 7.36173 | -38.84488 | 33011 ft | 490 kts | 28° |
| 2026-04-26 23:30 | 7.42300 | -38.81476 | 33007 ft | 489 kts | 27° |
| 2026-04-26 23:30 | 7.48421 | -38.78467 | 33017 ft | 489 kts | 28° |
| 2026-04-26 23:31 | 7.54538 | -38.75455 | 33015 ft | 489 kts | 27° |
| 2026-04-26 23:31 | 7.60656 | -38.72443 | 33011 ft | 490 kts | 28° |
| 2026-04-26 23:32 | 7.66782 | -38.69426 | 33012 ft | 490 kts | 27° |
| 2026-04-26 23:32 | 7.72907 | -38.66409 | 33014 ft | 490 kts | 27° |
| 2026-04-26 23:33 | 7.79031 | -38.63392 | 33014 ft | 490 kts | 28° |
| 2026-04-26 23:33 | 7.85154 | -38.60374 | 33016 ft | 490 kts | 27° |
| 2026-04-26 23:34 | 7.91243 | -38.57372 | 33015 ft | 490 kts | 27° |
| 2026-04-26 23:34 | 7.97366 | -38.54351 | 33018 ft | 490 kts | 27° |
| 2026-04-26 23:35 | 8.03495 | -38.51326 | 33009 ft | 490 kts | 27° |
| 2026-04-26 23:35 | 8.09618 | -38.48306 | 33012 ft | 490 kts | 27° |
| 2026-04-26 23:36 | 8.15742 | -38.45283 | 33016 ft | 490 kts | 28° |
| 2026-04-26 23:36 | 8.21858 | -38.42261 | 33018 ft | 490 kts | 28° |
| 2026-04-26 23:37 | 8.27982 | -38.39236 | 33015 ft | 490 kts | 27° |
| 2026-04-26 23:37 | 8.34113 | -38.36205 | 33022 ft | 490 kts | 27° |
| 2026-04-26 23:38 | 8.40225 | -38.33182 | 33015 ft | 489 kts | 27° |
| 2026-04-26 23:38 | 8.46324 | -38.30167 | 33019 ft | 488 kts | 27° |
| 2026-04-26 23:39 | 8.52418 | -38.27150 | 33020 ft | 488 kts | 27° |
| 2026-04-26 23:39 | 8.58512 | -38.24136 | 33023 ft | 488 kts | 27° |
| 2026-04-26 23:40 | 8.64615 | -38.21115 | 33026 ft | 488 kts | 28° |
| 2026-04-26 23:40 | 8.70718 | -38.18092 | 33026 ft | 488 kts | 28° |
| 2026-04-26 23:41 | 8.76820 | -38.15066 | 33025 ft | 488 kts | 27° |
| 2026-04-26 23:41 | 8.82927 | -38.12043 | 33023 ft | 488 kts | 27° |
| 2026-04-26 23:42 | 8.89025 | -38.09020 | 33020 ft | 488 kts | 27° |
| 2026-04-26 23:42 | 8.98166 | -38.04482 | 33027 ft | 488 kts | 27° |
| 2026-04-26 23:43 | 9.04261 | -38.01458 | 33024 ft | 488 kts | 27° |
| 2026-04-26 23:43 | 9.10349 | -37.98434 | 33031 ft | 488 kts | 27° |
| 2026-04-26 23:44 | 9.16403 | -37.95427 | 33030 ft | 488 kts | 27° |
| 2026-04-26 23:44 | 9.22504 | -37.92396 | 33032 ft | 489 kts | 28° |
| 2026-04-26 23:45 | 9.28611 | -37.89360 | 33031 ft | 489 kts | 27° |
| 2026-04-26 23:45 | 9.34708 | -37.86329 | 33034 ft | 488 kts | 27° |
| 2026-04-26 23:46 | 9.40794 | -37.83301 | 33030 ft | 487 kts | 27° |
| 2026-04-26 23:46 | 9.46878 | -37.80276 | 33031 ft | 488 kts | 27° |
| 2026-04-26 23:47 | 9.52971 | -37.77242 | 33031 ft | 488 kts | 27° |
| 2026-04-26 23:47 | 9.59068 | -37.74203 | 33031 ft | 489 kts | 27° |
| 2026-04-26 23:48 | 9.65169 | -37.71162 | 33044 ft | 489 kts | 27° |
| 2026-04-26 23:48 | 9.71287 | -37.68114 | 33045 ft | 490 kts | 27° |
| 2026-04-26 23:49 | 9.77411 | -37.65061 | 33043 ft | 491 kts | 27° |
| 2026-04-26 23:49 | 9.83543 | -37.62002 | 33036 ft | 491 kts | 27° |
| 2026-04-26 23:50 | 9.89673 | -37.58942 | 33034 ft | 491 kts | 26° |
| 2026-04-26 23:50 | 9.95810 | -37.55878 | 33046 ft | 492 kts | 27° |
| 2026-04-26 23:51 | 10.01954 | -37.52809 | 33046 ft | 493 kts | 26° |
| 2026-04-26 23:51 | 10.08125 | -37.49725 | 33048 ft | 494 kts | 27° |
| 2026-04-26 23:52 | 10.14242 | -37.46667 | 33046 ft | 493 kts | 26° |
| 2026-04-26 23:52 | 10.20394 | -37.43590 | 33042 ft | 492 kts | 26° |
| 2026-04-26 23:53 | 10.26541 | -37.40515 | 33048 ft | 493 kts | 26° |
| 2026-04-26 23:53 | 10.32693 | -37.37435 | 33051 ft | 494 kts | 27° |
| 2026-04-26 23:54 | 10.38863 | -37.34345 | 33052 ft | 495 kts | 27° |
| 2026-04-26 23:54 | 10.45052 | -37.31244 | 33053 ft | 496 kts | 27° |
| 2026-04-26 23:55 | 10.51237 | -37.28144 | 33054 ft | 496 kts | 26° |
| 2026-04-26 23:55 | 10.57421 | -37.25043 | 33053 ft | 496 kts | 26° |
| 2026-04-26 23:56 | 10.63609 | -37.21939 | 33059 ft | 496 kts | 27° |
| 2026-04-26 23:56 | 10.69800 | -37.18832 | 33060 ft | 496 kts | 26° |
| 2026-04-26 23:57 | 10.75991 | -37.15723 | 33064 ft | 496 kts | 26° |
| 2026-04-26 23:57 | 10.82176 | -37.12615 | 33063 ft | 496 kts | 26° |
| 2026-04-26 23:58 | 10.88363 | -37.09506 | 33063 ft | 496 kts | 26° |
| 2026-04-26 23:58 | 10.94542 | -37.06399 | 33062 ft | 495 kts | 26° |
| 2026-04-26 23:59 | 11.00679 | -37.03312 | 33067 ft | 495 kts | 26° |
| 2026-04-26 23:59 | 11.06888 | -37.00187 | 33068 ft | 495 kts | 26° |
| 2026-04-27 00:00 | 11.13022 | -36.97098 | 33066 ft | 495 kts | 26° |
| 2026-04-27 00:00 | 11.19191 | -36.93989 | 33074 ft | 494 kts | 26° |
| 2026-04-27 00:01 | 11.25353 | -36.90884 | 33073 ft | 494 kts | 26° |
| 2026-04-27 00:01 | 11.31511 | -36.87778 | 33069 ft | 493 kts | 26° |
| 2026-04-27 00:02 | 11.36665 | -36.85178 | 33073 ft | 493 kts | 26° |
| 2026-04-27 00:02 | 11.42818 | -36.82072 | 33074 ft | 494 kts | 26° |
| 2026-04-27 00:03 | 11.48930 | -36.78985 | 33075 ft | 494 kts | 26° |
| 2026-04-27 00:03 | 11.55094 | -36.75871 | 33076 ft | 495 kts | 25° |
| 2026-04-27 00:04 | 11.61270 | -36.72748 | 33077 ft | 496 kts | 26° |
| 2026-04-27 00:04 | 11.67452 | -36.69619 | 33076 ft | 496 kts | 26° |
| 2026-04-27 00:05 | 11.73586 | -36.66365 | 33080 ft | 497 kts | 27° |
| 2026-04-27 00:05 | 11.79689 | -36.63044 | 33077 ft | 497 kts | 27° |
| 2026-04-27 00:06 | 11.85793 | -36.59729 | 33081 ft | 497 kts | 27° |
| 2026-04-27 00:06 | 11.91898 | -36.56432 | 33077 ft | 497 kts | 27° |
| 2026-04-27 00:07 | 11.98010 | -36.53138 | 33080 ft | 496 kts | 26° |
| 2026-04-27 00:07 | 12.04117 | -36.49845 | 33078 ft | 496 kts | 27° |
| 2026-04-27 00:08 | 12.10224 | -36.46550 | 33083 ft | 496 kts | 26° |
| 2026-04-27 00:08 | 12.16335 | -36.43249 | 33081 ft | 497 kts | 26° |
| 2026-04-27 00:09 | 12.22451 | -36.39946 | 33084 ft | 498 kts | 26° |
| 2026-04-27 00:09 | 12.28589 | -36.36628 | 33082 ft | 499 kts | 26° |
| 2026-04-27 00:10 | 12.34730 | -36.33304 | 33083 ft | 500 kts | 27° |
| 2026-04-27 00:10 | 12.40876 | -36.29978 | 33089 ft | 500 kts | 26° |
| 2026-04-27 00:11 | 12.47022 | -36.26651 | 33081 ft | 501 kts | 26° |
| 2026-04-27 00:11 | 12.53186 | -36.23312 | 33086 ft | 501 kts | 27° |
| 2026-04-27 00:12 | 12.59308 | -36.19994 | 33089 ft | 502 kts | 26° |
| 2026-04-27 00:12 | 12.65489 | -36.16643 | 33089 ft | 502 kts | 26° |
| 2026-04-27 00:13 | 12.71662 | -36.13291 | 33089 ft | 502 kts | 27° |
| 2026-04-27 00:13 | 12.77831 | -36.09940 | 33087 ft | 502 kts | 26° |
| 2026-04-27 00:14 | 12.83999 | -36.06591 | 33090 ft | 502 kts | 27° |
| 2026-04-27 00:14 | 12.90177 | -36.03231 | 33091 ft | 502 kts | 26° |
| 2026-04-27 00:15 | 12.96350 | -35.99876 | 33092 ft | 502 kts | 26° |
| 2026-04-27 00:15 | 13.02526 | -35.96515 | 33095 ft | 503 kts | 26° |
| 2026-04-27 00:16 | 13.08708 | -35.93148 | 33095 ft | 503 kts | 26° |
| 2026-04-27 00:16 | 13.14897 | -35.89777 | 33093 ft | 503 kts | 26° |
| 2026-04-27 00:17 | 13.21082 | -35.86407 | 33101 ft | 503 kts | 26° |
| 2026-04-27 00:17 | 13.27269 | -35.83032 | 33093 ft | 504 kts | 26° |
| 2026-04-27 00:18 | 13.33454 | -35.79655 | 33101 ft | 503 kts | 26° |
| 2026-04-27 00:18 | 13.39636 | -35.76281 | 33105 ft | 503 kts | 26° |
| 2026-04-27 00:19 | 13.45815 | -35.72903 | 33099 ft | 503 kts | 26° |
| 2026-04-27 00:19 | 13.51991 | -35.69527 | 33104 ft | 503 kts | 26° |
| 2026-04-27 00:20 | 13.58165 | -35.66147 | 33099 ft | 503 kts | 26° |
| 2026-04-27 00:20 | 13.64342 | -35.62768 | 33096 ft | 503 kts | 26° |
| 2026-04-27 00:21 | 13.70512 | -35.59388 | 33103 ft | 502 kts | 26° |
| 2026-04-27 00:21 | 13.76639 | -35.56032 | 33103 ft | 502 kts | 26° |
| 2026-04-27 00:22 | 13.82803 | -35.52651 | 33103 ft | 502 kts | 26° |
| 2026-04-27 00:22 | 13.88962 | -35.49271 | 33109 ft | 502 kts | 26° |
| 2026-04-27 00:23 | 13.95118 | -35.45892 | 33102 ft | 501 kts | 26° |
| 2026-04-27 00:23 | 14.01273 | -35.42512 | 33103 ft | 501 kts | 26° |
| 2026-04-27 00:24 | 14.07419 | -35.39133 | 33108 ft | 501 kts | 26° |
| 2026-04-27 00:24 | 14.13567 | -35.35752 | 33104 ft | 501 kts | 26° |
| 2026-04-27 00:25 | 14.19710 | -35.32371 | 33107 ft | 500 kts | 26° |
| 2026-04-27 00:25 | 14.25839 | -35.28995 | 33105 ft | 500 kts | 26° |
| 2026-04-27 00:26 | 14.31982 | -35.25610 | 33108 ft | 500 kts | 26° |
| 2026-04-27 00:26 | 14.38114 | -35.22229 | 33114 ft | 500 kts | 26° |
| 2026-04-27 00:27 | 14.44257 | -35.18840 | 33111 ft | 500 kts | 26° |
| 2026-04-27 00:27 | 14.50397 | -35.15450 | 33113 ft | 500 kts | 26° |
| 2026-04-27 00:28 | 14.56533 | -35.12060 | 33111 ft | 500 kts | 26° |
| 2026-04-27 00:28 | 14.62672 | -35.08667 | 33112 ft | 500 kts | 26° |
| 2026-04-27 00:29 | 14.68807 | -35.05273 | 33113 ft | 500 kts | 26° |
| 2026-04-27 00:29 | 14.74948 | -35.01875 | 33113 ft | 501 kts | 26° |
| 2026-04-27 00:30 | 14.81088 | -34.98474 | 33116 ft | 501 kts | 26° |
| 2026-04-27 00:30 | 14.87226 | -34.95072 | 33118 ft | 501 kts | 26° |
| 2026-04-27 00:31 | 14.93364 | -34.91668 | 33115 ft | 501 kts | 26° |
| 2026-04-27 00:31 | 14.99502 | -34.88262 | 33117 ft | 501 kts | 26° |
| 2026-04-27 00:32 | 15.05639 | -34.84854 | 33115 ft | 501 kts | 26° |
| 2026-04-27 00:32 | 15.11776 | -34.81444 | 33117 ft | 501 kts | 26° |
| 2026-04-27 00:33 | 15.17871 | -34.78055 | 33117 ft | 501 kts | 26° |
| 2026-04-27 00:33 | 15.24004 | -34.74643 | 33118 ft | 501 kts | 26° |
| 2026-04-27 00:34 | 15.30142 | -34.71225 | 33118 ft | 501 kts | 26° |
| 2026-04-27 00:34 | 15.36275 | -34.67808 | 33119 ft | 501 kts | 25° |
| 2026-04-27 00:35 | 15.42409 | -34.64388 | 33120 ft | 501 kts | 25° |
| 2026-04-27 00:35 | 15.48545 | -34.60965 | 33123 ft | 501 kts | 25° |
| 2026-04-27 00:36 | 15.54683 | -34.57538 | 33120 ft | 501 kts | 25° |
| 2026-04-27 00:36 | 15.60817 | -34.54112 | 33120 ft | 501 kts | 25° |
| 2026-04-27 00:37 | 15.66953 | -34.50681 | 33124 ft | 501 kts | 25° |
| 2026-04-27 00:37 | 15.73084 | -34.47251 | 33123 ft | 501 kts | 25° |
| 2026-04-27 00:38 | 15.79213 | -34.43820 | 33123 ft | 501 kts | 25° |
| 2026-04-27 00:38 | 15.85350 | -34.40382 | 33128 ft | 501 kts | 25° |
| 2026-04-27 00:39 | 15.91484 | -34.36944 | 33125 ft | 501 kts | 25° |
| 2026-04-27 00:39 | 15.97610 | -34.33507 | 33131 ft | 501 kts | 25° |
| 2026-04-27 00:40 | 16.03744 | -34.30063 | 33126 ft | 501 kts | 25° |
| 2026-04-27 00:40 | 16.09866 | -34.26623 | 33125 ft | 500 kts | 25° |
| 2026-04-27 00:41 | 16.15991 | -34.23179 | 33125 ft | 500 kts | 25° |
| 2026-04-27 00:41 | 16.22113 | -34.19734 | 33126 ft | 500 kts | 25° |
| 2026-04-27 00:42 | 16.28213 | -34.16248 | 33127 ft | 501 kts | 28° |
| 2026-04-27 00:42 | 16.34030 | -34.12220 | 33134 ft | 503 kts | 31° |
| 2026-04-27 00:43 | 16.39806 | -34.08102 | 33129 ft | 503 kts | 31° |
| 2026-04-27 00:43 | 16.45556 | -34.04026 | 33169 ft | 505 kts | 30° |
| 2026-04-27 00:44 | 16.48512 | -34.01941 | 33398 ft | 506 kts | 30° |
| 2026-04-27 00:44 | 16.51423 | -33.99892 | 33728 ft | 505 kts | 30° |
| 2026-04-27 00:44 | 16.54328 | -33.97847 | 34070 ft | 503 kts | 30° |
| 2026-04-27 00:44 | 16.57227 | -33.95807 | 34342 ft | 502 kts | 30° |
| 2026-04-27 00:45 | 16.60125 | -33.93767 | 34593 ft | 501 kts | 30° |
| 2026-04-27 00:45 | 16.63013 | -33.91733 | 34841 ft | 501 kts | 30° |
| 2026-04-27 00:45 | 16.65903 | -33.89697 | 35043 ft | 502 kts | 30° |
| 2026-04-27 00:45 | 16.68802 | -33.87654 | 35071 ft | 504 kts | 30° |
| 2026-04-27 00:46 | 16.74561 | -33.83591 | 35129 ft | 502 kts | 30° |
| 2026-04-27 00:46 | 16.80336 | -33.79513 | 35130 ft | 500 kts | 30° |
| 2026-04-27 00:47 | 16.86096 | -33.75442 | 35135 ft | 499 kts | 30° |
| 2026-04-27 00:47 | 16.91847 | -33.71376 | 35133 ft | 499 kts | 30° |
| 2026-04-27 00:48 | 16.97596 | -33.67309 | 35139 ft | 499 kts | 30° |
| 2026-04-27 00:48 | 17.02382 | -33.63920 | 35139 ft | 500 kts | 30° |
| 2026-04-27 00:49 | 17.08146 | -33.59836 | 35138 ft | 501 kts | 30° |
| 2026-04-27 00:49 | 17.13914 | -33.55745 | 35139 ft | 502 kts | 30° |
| 2026-04-27 00:50 | 17.22583 | -33.49591 | 35138 ft | 502 kts | 30° |
| 2026-04-27 00:51 | 17.28363 | -33.45484 | 35138 ft | 502 kts | 30° |
| 2026-04-27 00:51 | 17.34140 | -33.41376 | 35142 ft | 502 kts | 30° |
| 2026-04-27 00:52 | 17.39919 | -33.37264 | 35136 ft | 502 kts | 30° |
| 2026-04-27 00:52 | 17.45693 | -33.33152 | 35141 ft | 501 kts | 30° |
| 2026-04-27 00:53 | 17.51454 | -33.29045 | 35123 ft | 501 kts | 30° |
| 2026-04-27 00:53 | 17.57212 | -33.24938 | 35143 ft | 500 kts | 30° |
| 2026-04-27 00:54 | 17.62961 | -33.20834 | 35143 ft | 500 kts | 30° |
| 2026-04-27 00:54 | 17.68712 | -33.16726 | 35134 ft | 500 kts | 30° |
| 2026-04-27 00:55 | 17.74463 | -33.12614 | 35140 ft | 500 kts | 30° |
| 2026-04-27 00:55 | 17.80206 | -33.08505 | 35151 ft | 499 kts | 30° |
| 2026-04-27 00:56 | 17.85947 | -33.04394 | 35141 ft | 499 kts | 30° |
| 2026-04-27 00:56 | 17.91645 | -33.00310 | 35141 ft | 499 kts | 30° |
| 2026-04-27 00:57 | 17.97379 | -32.96197 | 35155 ft | 499 kts | 30° |
| 2026-04-27 00:57 | 18.03117 | -32.92079 | 35144 ft | 500 kts | 30° |
| 2026-04-27 00:58 | 18.08856 | -32.87956 | 35157 ft | 500 kts | 30° |
| 2026-04-27 00:58 | 18.14594 | -32.83831 | 35152 ft | 500 kts | 30° |
| 2026-04-27 00:59 | 18.20339 | -32.79697 | 35148 ft | 500 kts | 30° |
| 2026-04-27 00:59 | 18.26079 | -32.75563 | 35149 ft | 500 kts | 30° |
| 2026-04-27 01:00 | 18.31821 | -32.71425 | 35168 ft | 500 kts | 30° |
| 2026-04-27 01:00 | 18.37559 | -32.67285 | 35151 ft | 500 kts | 30° |
| 2026-04-27 01:01 | 18.43295 | -32.63145 | 35156 ft | 500 kts | 30° |
| 2026-04-27 01:01 | 18.49030 | -32.59001 | 35155 ft | 500 kts | 30° |
| 2026-04-27 01:02 | 18.54768 | -32.54852 | 35153 ft | 500 kts | 30° |
| 2026-04-27 01:02 | 18.60507 | -32.50699 | 35151 ft | 500 kts | 30° |
| 2026-04-27 01:03 | 18.66238 | -32.46548 | 35159 ft | 500 kts | 29° |
| 2026-04-27 01:03 | 18.71973 | -32.42391 | 35155 ft | 500 kts | 29° |
| 2026-04-27 01:04 | 18.77710 | -32.38228 | 35152 ft | 500 kts | 30° |
| 2026-04-27 01:04 | 18.83411 | -32.34088 | 35160 ft | 500 kts | 29° |
| 2026-04-27 01:05 | 18.89145 | -32.29921 | 35152 ft | 501 kts | 29° |
| 2026-04-27 01:05 | 18.94879 | -32.25751 | 35152 ft | 500 kts | 29° |
| 2026-04-27 01:06 | 19.00614 | -32.21575 | 35162 ft | 501 kts | 29° |
| 2026-04-27 01:06 | 19.06346 | -32.17399 | 35157 ft | 501 kts | 29° |
| 2026-04-27 01:07 | 19.12087 | -32.13213 | 35157 ft | 501 kts | 29° |
| 2026-04-27 01:07 | 19.17824 | -32.09025 | 35156 ft | 501 kts | 29° |
| 2026-04-27 01:08 | 19.23565 | -32.04832 | 35162 ft | 501 kts | 29° |
| 2026-04-27 01:08 | 19.29303 | -32.00637 | 35162 ft | 501 kts | 29° |
| 2026-04-27 01:09 | 19.35039 | -31.96439 | 35164 ft | 501 kts | 29° |
| 2026-04-27 01:09 | 19.40779 | -31.92236 | 35161 ft | 501 kts | 29° |
| 2026-04-27 01:10 | 19.46514 | -31.88031 | 35163 ft | 501 kts | 29° |
| 2026-04-27 01:10 | 19.52242 | -31.83829 | 35160 ft | 501 kts | 29° |
| 2026-04-27 01:11 | 19.57964 | -31.79627 | 35163 ft | 500 kts | 28° |
| 2026-04-27 01:11 | 19.63686 | -31.75421 | 35162 ft | 500 kts | 28° |
| 2026-04-27 01:12 | 19.69416 | -31.71207 | 35160 ft | 501 kts | 28° |
| 2026-04-27 01:12 | 19.75097 | -31.67024 | 35172 ft | 501 kts | 28° |
| 2026-04-27 01:13 | 19.80825 | -31.62804 | 35173 ft | 501 kts | 28° |
| 2026-04-27 01:13 | 19.86554 | -31.58578 | 35158 ft | 501 kts | 28° |
| 2026-04-27 01:14 | 19.92282 | -31.54349 | 35158 ft | 502 kts | 28° |
| 2026-04-27 01:14 | 19.98011 | -31.50115 | 35164 ft | 502 kts | 28° |
| 2026-04-27 01:15 | 20.03744 | -31.45875 | 35166 ft | 502 kts | 28° |
| 2026-04-27 01:15 | 20.09473 | -31.41635 | 35162 ft | 502 kts | 28° |
| 2026-04-27 01:16 | 20.15202 | -31.37390 | 35165 ft | 501 kts | 28° |
| 2026-04-27 01:16 | 20.20922 | -31.33148 | 35166 ft | 501 kts | 28° |
| 2026-04-27 01:17 | 20.26641 | -31.28903 | 35168 ft | 501 kts | 28° |
| 2026-04-27 01:17 | 20.32359 | -31.24655 | 35165 ft | 501 kts | 28° |
| 2026-04-27 01:18 | 20.38071 | -31.20407 | 35172 ft | 501 kts | 28° |
| 2026-04-27 01:18 | 20.43800 | -31.16143 | 35168 ft | 501 kts | 28° |
| 2026-04-27 01:19 | 20.49513 | -31.11887 | 35169 ft | 501 kts | 28° |
| 2026-04-27 01:19 | 20.55232 | -31.07622 | 35169 ft | 501 kts | 28° |
| 2026-04-27 01:20 | 20.60945 | -31.03357 | 35169 ft | 501 kts | 28° |
| 2026-04-27 01:20 | 20.66662 | -30.99086 | 35188 ft | 501 kts | 28° |
| 2026-04-27 01:21 | 20.72375 | -30.94814 | 35182 ft | 502 kts | 27° |
| 2026-04-27 01:21 | 20.78097 | -30.90531 | 35173 ft | 502 kts | 27° |
| 2026-04-27 01:22 | 20.83815 | -30.86246 | 35171 ft | 502 kts | 27° |
| 2026-04-27 01:22 | 20.89534 | -30.81956 | 35175 ft | 502 kts | 27° |
| 2026-04-27 01:23 | 20.95253 | -30.77669 | 35175 ft | 501 kts | 26° |
| 2026-04-27 01:23 | 21.01201 | -30.73928 | 35197 ft | 494 kts | 20° |
| 2026-04-27 01:24 | 21.07255 | -30.70428 | 35178 ft | 494 kts | 20° |
| 2026-04-27 01:24 | 21.13262 | -30.66941 | 35184 ft | 495 kts | 20° |
| 2026-04-27 01:25 | 21.19343 | -30.63371 | 35176 ft | 495 kts | 21° |
| 2026-04-27 01:25 | 21.25336 | -30.59834 | 35177 ft | 495 kts | 21° |
| 2026-04-27 01:26 | 21.31371 | -30.56266 | 35177 ft | 495 kts | 21° |
| 2026-04-27 01:26 | 21.37401 | -30.52699 | 35180 ft | 495 kts | 20° |
| 2026-04-27 01:27 | 21.43434 | -30.49130 | 35175 ft | 495 kts | 20° |
| 2026-04-27 01:27 | 21.49468 | -30.45556 | 35179 ft | 495 kts | 20° |
| 2026-04-27 01:28 | 21.55499 | -30.41981 | 35179 ft | 495 kts | 20° |
| 2026-04-27 01:28 | 21.61532 | -30.38401 | 35188 ft | 495 kts | 20° |
| 2026-04-27 01:29 | 21.67565 | -30.34818 | 35183 ft | 495 kts | 20° |
| 2026-04-27 01:29 | 21.73597 | -30.31231 | 35188 ft | 495 kts | 20° |
| 2026-04-27 01:30 | 21.79626 | -30.27643 | 35181 ft | 495 kts | 20° |
| 2026-04-27 01:30 | 21.85650 | -30.24054 | 35181 ft | 495 kts | 20° |
| 2026-04-27 01:31 | 21.91670 | -30.20465 | 35182 ft | 495 kts | 20° |
| 2026-04-27 01:31 | 21.97697 | -30.16868 | 35195 ft | 495 kts | 20° |
| 2026-04-27 01:32 | 22.03726 | -30.13266 | 35184 ft | 496 kts | 20° |
| 2026-04-27 01:32 | 22.09756 | -30.09661 | 35187 ft | 496 kts | 20° |
| 2026-04-27 01:33 | 22.15791 | -30.06048 | 35186 ft | 496 kts | 20° |
| 2026-04-27 01:33 | 22.21790 | -30.02453 | 35179 ft | 496 kts | 20° |
| 2026-04-27 01:34 | 22.27822 | -29.98834 | 35188 ft | 496 kts | 20° |
| 2026-04-27 01:34 | 22.33852 | -29.95214 | 35188 ft | 496 kts | 20° |
| 2026-04-27 01:35 | 22.39895 | -29.91583 | 35186 ft | 496 kts | 20° |
| 2026-04-27 01:35 | 22.45929 | -29.87953 | 35184 ft | 496 kts | 20° |
| 2026-04-27 01:36 | 22.51970 | -29.84315 | 35185 ft | 497 kts | 20° |
| 2026-04-27 01:36 | 22.58001 | -29.80679 | 35192 ft | 497 kts | 20° |
| 2026-04-27 01:37 | 22.64037 | -29.77037 | 35206 ft | 497 kts | 20° |
| 2026-04-27 01:37 | 22.69091 | -29.73983 | 35195 ft | 496 kts | 20° |
| 2026-04-27 01:38 | 22.75114 | -29.70342 | 35184 ft | 495 kts | 20° |
| 2026-04-27 01:38 | 22.81086 | -29.66727 | 35188 ft | 494 kts | 20° |
| 2026-04-27 01:39 | 22.87084 | -29.63094 | 35189 ft | 494 kts | 20° |
| 2026-04-27 01:39 | 22.93080 | -29.59458 | 35193 ft | 494 kts | 20° |
| 2026-04-27 01:40 | 22.99075 | -29.55820 | 35200 ft | 494 kts | 20° |
| 2026-04-27 01:40 | 23.05067 | -29.52179 | 35204 ft | 494 kts | 20° |
| 2026-04-27 01:41 | 23.11064 | -29.48532 | 35196 ft | 494 kts | 20° |
| 2026-04-27 01:41 | 23.17063 | -29.44879 | 35195 ft | 494 kts | 20° |
| 2026-04-27 01:42 | 23.23052 | -29.41228 | 35188 ft | 494 kts | 20° |
| 2026-04-27 01:42 | 23.29048 | -29.37570 | 35202 ft | 494 kts | 20° |
| 2026-04-27 01:43 | 23.35045 | -29.33907 | 35202 ft | 494 kts | 20° |
| 2026-04-27 01:43 | 23.41043 | -29.30240 | 35189 ft | 495 kts | 20° |
| 2026-04-27 01:44 | 23.47039 | -29.26570 | 35184 ft | 495 kts | 20° |
| 2026-04-27 01:44 | 23.53048 | -29.22888 | 35198 ft | 495 kts | 20° |
| 2026-04-27 01:45 | 23.59056 | -29.19203 | 35214 ft | 496 kts | 19° |
| 2026-04-27 01:45 | 23.65073 | -29.15509 | 35205 ft | 496 kts | 19° |
| 2026-04-27 01:46 | 23.71088 | -29.11811 | 35195 ft | 496 kts | 19° |
| 2026-04-27 01:46 | 23.77101 | -29.08111 | 35191 ft | 496 kts | 19° |
| 2026-04-27 01:47 | 23.83119 | -29.04403 | 35197 ft | 496 kts | 19° |
| 2026-04-27 01:47 | 23.89125 | -29.00699 | 35196 ft | 496 kts | 19° |
| 2026-04-27 01:48 | 23.95138 | -28.96988 | 35195 ft | 496 kts | 19° |
| 2026-04-27 01:48 | 24.01109 | -28.93298 | 35203 ft | 496 kts | 19° |
| 2026-04-27 01:49 | 24.07118 | -28.89581 | 35198 ft | 496 kts | 19° |
| 2026-04-27 01:49 | 24.13118 | -28.85864 | 35199 ft | 496 kts | 19° |
| 2026-04-27 01:50 | 24.19127 | -28.82138 | 35198 ft | 496 kts | 19° |
| 2026-04-27 01:50 | 24.25127 | -28.78415 | 35208 ft | 496 kts | 20° |
| 2026-04-27 01:51 | 24.31131 | -28.74685 | 35204 ft | 496 kts | 20° |
| 2026-04-27 01:51 | 24.37133 | -28.70950 | 35201 ft | 496 kts | 20° |
| 2026-04-27 01:52 | 24.43125 | -28.67219 | 35194 ft | 495 kts | 20° |
| 2026-04-27 01:52 | 24.49119 | -28.63483 | 35199 ft | 495 kts | 20° |
| 2026-04-27 01:53 | 24.55096 | -28.59751 | 35215 ft | 494 kts | 21° |
| 2026-04-27 01:53 | 24.61062 | -28.56023 | 35199 ft | 492 kts | 21° |
| 2026-04-27 01:54 | 24.67005 | -28.52305 | 35196 ft | 491 kts | 21° |
| 2026-04-27 01:54 | 24.72931 | -28.48594 | 35199 ft | 490 kts | 21° |
| 2026-04-27 01:55 | 24.78850 | -28.44885 | 35199 ft | 489 kts | 21° |
| 2026-04-27 01:55 | 24.84764 | -28.41174 | 35201 ft | 489 kts | 21° |
| 2026-04-27 01:56 | 24.93644 | -28.35595 | 35202 ft | 490 kts | 21° |
| 2026-04-27 01:56 | 24.99565 | -28.31869 | 35203 ft | 491 kts | 21° |
| 2026-04-27 01:57 | 25.05504 | -28.28127 | 35199 ft | 491 kts | 21° |
| 2026-04-27 01:57 | 25.11442 | -28.24382 | 35199 ft | 492 kts | 21° |
| 2026-04-27 01:58 | 25.17383 | -28.20630 | 35219 ft | 492 kts | 22° |
| 2026-04-27 01:58 | 25.23330 | -28.16871 | 35200 ft | 492 kts | 22° |
| 2026-04-27 01:59 | 25.29270 | -28.13111 | 35191 ft | 492 kts | 22° |
| 2026-04-27 01:59 | 25.35210 | -28.09346 | 35195 ft | 492 kts | 22° |
| 2026-04-27 02:00 | 25.41152 | -28.05578 | 35205 ft | 492 kts | 22° |
| 2026-04-27 02:00 | 25.47086 | -28.01809 | 35199 ft | 492 kts | 22° |
| 2026-04-27 02:01 | 25.53021 | -27.98036 | 35206 ft | 492 kts | 23° |
| 2026-04-27 02:01 | 25.58960 | -27.94256 | 35204 ft | 492 kts | 23° |
| 2026-04-27 02:02 | 25.64896 | -27.90473 | 35200 ft | 492 kts | 23° |
| 2026-04-27 02:02 | 25.70835 | -27.86684 | 35201 ft | 492 kts | 23° |
| 2026-04-27 02:03 | 25.76771 | -27.82892 | 35199 ft | 492 kts | 23° |
| 2026-04-27 02:03 | 25.82704 | -27.79099 | 35223 ft | 492 kts | 24° |
| 2026-04-27 02:04 | 25.88639 | -27.75299 | 35212 ft | 493 kts | 24° |
| 2026-04-27 02:04 | 25.94535 | -27.71518 | 35207 ft | 492 kts | 24° |
| 2026-04-27 02:05 | 26.00508 | -27.67685 | 35200 ft | 492 kts | 24° |
| 2026-04-27 02:05 | 26.06389 | -27.63907 | 35202 ft | 492 kts | 24° |
| 2026-04-27 02:06 | 26.12310 | -27.60098 | 35219 ft | 491 kts | 25° |
| 2026-04-27 02:06 | 26.18224 | -27.56290 | 35208 ft | 491 kts | 25° |
| 2026-04-27 02:07 | 26.24138 | -27.52476 | 35193 ft | 491 kts | 25° |
| 2026-04-27 02:07 | 26.30051 | -27.48659 | 35206 ft | 491 kts | 25° |
| 2026-04-27 02:08 | 26.35959 | -27.44841 | 35196 ft | 491 kts | 25° |
| 2026-04-27 02:08 | 26.41864 | -27.41020 | 35213 ft | 491 kts | 25° |
| 2026-04-27 02:09 | 26.47769 | -27.37194 | 35208 ft | 491 kts | 25° |
| 2026-04-27 02:09 | 26.53669 | -27.33367 | 35197 ft | 490 kts | 25° |
| 2026-04-27 02:10 | 26.59564 | -27.29539 | 35201 ft | 490 kts | 25° |
| 2026-04-27 02:10 | 26.65457 | -27.25707 | 35202 ft | 490 kts | 25° |
| 2026-04-27 02:11 | 26.71349 | -27.21872 | 35203 ft | 490 kts | 25° |
| 2026-04-27 02:11 | 26.77237 | -27.18034 | 35216 ft | 490 kts | 25° |
| 2026-04-27 02:12 | 26.83123 | -27.14193 | 35208 ft | 489 kts | 25° |
| 2026-04-27 02:12 | 26.88994 | -27.10357 | 35196 ft | 488 kts | 25° |
| 2026-04-27 02:13 | 26.94855 | -27.06522 | 35204 ft | 487 kts | 25° |
| 2026-04-27 02:13 | 27.00701 | -27.02694 | 35199 ft | 486 kts | 25° |
| 2026-04-27 02:14 | 27.06534 | -26.98869 | 35219 ft | 486 kts | 25° |
| 2026-04-27 02:14 | 27.12367 | -26.95040 | 35203 ft | 486 kts | 25° |
| 2026-04-27 02:15 | 27.18200 | -26.91206 | 35200 ft | 485 kts | 25° |
| 2026-04-27 02:15 | 27.24025 | -26.87372 | 35202 ft | 485 kts | 25° |
| 2026-04-27 02:16 | 27.29842 | -26.83539 | 35202 ft | 484 kts | 25° |
| 2026-04-27 02:16 | 27.35609 | -26.79734 | 35199 ft | 483 kts | 25° |
| 2026-04-27 02:17 | 27.41402 | -26.75907 | 35208 ft | 483 kts | 25° |
| 2026-04-27 02:17 | 27.47191 | -26.72078 | 35204 ft | 482 kts | 25° |
| 2026-04-27 02:18 | 27.52967 | -26.68254 | 35200 ft | 482 kts | 25° |
| 2026-04-27 02:18 | 27.58747 | -26.64422 | 35199 ft | 482 kts | 25° |
| 2026-04-27 02:19 | 27.64530 | -26.60583 | 35202 ft | 482 kts | 25° |
| 2026-04-27 02:19 | 27.70311 | -26.56742 | 35212 ft | 483 kts | 25° |
| 2026-04-27 02:20 | 27.76104 | -26.52887 | 35213 ft | 484 kts | 25° |
| 2026-04-27 02:20 | 27.81893 | -26.49029 | 35205 ft | 484 kts | 25° |
| 2026-04-27 02:21 | 27.87698 | -26.45156 | 35203 ft | 484 kts | 25° |
| 2026-04-27 02:21 | 27.93492 | -26.41286 | 35202 ft | 484 kts | 25° |
| 2026-04-27 02:22 | 27.98305 | -26.38067 | 35202 ft | 484 kts | 25° |
| 2026-04-27 02:22 | 28.04095 | -26.34190 | 35202 ft | 484 kts | 25° |
| 2026-04-27 02:23 | 28.09883 | -26.30310 | 35203 ft | 483 kts | 25° |
| 2026-04-27 02:23 | 28.15672 | -26.26424 | 35202 ft | 483 kts | 25° |
| 2026-04-27 02:24 | 28.21458 | -26.22536 | 35193 ft | 484 kts | 25° |
| 2026-04-27 02:24 | 28.27245 | -26.18641 | 35210 ft | 484 kts | 25° |
| 2026-04-27 02:25 | 28.33036 | -26.14739 | 35204 ft | 484 kts | 24° |
| 2026-04-27 02:25 | 28.38826 | -26.10833 | 35198 ft | 483 kts | 24° |
| 2026-04-27 02:26 | 28.44599 | -26.06932 | 35202 ft | 483 kts | 24° |
| 2026-04-27 02:26 | 28.50372 | -26.03027 | 35200 ft | 482 kts | 24° |
| 2026-04-27 02:27 | 28.56131 | -25.99127 | 35199 ft | 482 kts | 24° |
| 2026-04-27 02:27 | 28.61890 | -25.95222 | 35215 ft | 482 kts | 24° |
| 2026-04-27 02:28 | 28.67646 | -25.91314 | 35209 ft | 481 kts | 24° |
| 2026-04-27 02:28 | 28.73393 | -25.87406 | 35196 ft | 480 kts | 24° |
| 2026-04-27 02:29 | 28.79126 | -25.83502 | 35200 ft | 480 kts | 24° |
| 2026-04-27 02:29 | 28.84851 | -25.79600 | 35200 ft | 479 kts | 24° |
| 2026-04-27 02:30 | 28.90567 | -25.75699 | 35198 ft | 479 kts | 24° |
| 2026-04-27 02:30 | 28.96284 | -25.71792 | 35208 ft | 479 kts | 24° |
| 2026-04-27 02:31 | 29.02012 | -25.67874 | 35201 ft | 480 kts | 24° |
| 2026-04-27 02:31 | 29.07750 | -25.63942 | 35212 ft | 481 kts | 24° |
| 2026-04-27 02:32 | 29.13486 | -25.60006 | 35201 ft | 481 kts | 24° |
| 2026-04-27 02:32 | 29.19216 | -25.56068 | 35196 ft | 480 kts | 24° |
| 2026-04-27 02:33 | 29.24932 | -25.52135 | 35213 ft | 478 kts | 24° |
| 2026-04-27 02:33 | 29.30621 | -25.48215 | 35181 ft | 476 kts | 24° |
| 2026-04-27 02:34 | 29.36282 | -25.44310 | 35199 ft | 474 kts | 24° |
| 2026-04-27 02:34 | 29.41919 | -25.40417 | 35202 ft | 472 kts | 24° |
| 2026-04-27 02:35 | 29.47542 | -25.36530 | 35197 ft | 472 kts | 24° |
| 2026-04-27 02:35 | 29.53160 | -25.32640 | 35211 ft | 472 kts | 25° |
| 2026-04-27 02:36 | 29.58785 | -25.28741 | 35192 ft | 472 kts | 25° |
| 2026-04-27 02:36 | 29.64411 | -25.24835 | 35192 ft | 473 kts | 25° |
| 2026-04-27 02:37 | 29.70036 | -25.20924 | 35198 ft | 473 kts | 25° |
| 2026-04-27 02:37 | 29.75670 | -25.17002 | 35213 ft | 473 kts | 25° |
| 2026-04-27 02:38 | 29.81304 | -25.13074 | 35195 ft | 474 kts | 25° |
| 2026-04-27 02:38 | 29.86943 | -25.09138 | 35202 ft | 474 kts | 25° |
| 2026-04-27 02:39 | 29.92582 | -25.05196 | 35201 ft | 475 kts | 25° |
| 2026-04-27 02:39 | 29.98193 | -25.01268 | 35209 ft | 475 kts | 24° |
| 2026-04-27 02:40 | 30.03963 | -24.97670 | 35207 ft | 469 kts | 19° |
| 2026-04-27 02:40 | 30.09841 | -24.94389 | 35202 ft | 469 kts | 19° |
| 2026-04-27 02:41 | 30.15729 | -24.91100 | 35208 ft | 470 kts | 19° |
| 2026-04-27 02:41 | 30.21611 | -24.87783 | 35205 ft | 471 kts | 19° |
| 2026-04-27 02:42 | 30.27497 | -24.84444 | 35200 ft | 471 kts | 19° |
| 2026-04-27 02:42 | 30.33381 | -24.81098 | 35201 ft | 472 kts | 19° |
| 2026-04-27 02:43 | 30.39273 | -24.77743 | 35199 ft | 472 kts | 19° |
| 2026-04-27 02:43 | 30.45169 | -24.74383 | 35209 ft | 472 kts | 19° |
| 2026-04-27 02:44 | 30.51054 | -24.71025 | 35196 ft | 471 kts | 19° |
| 2026-04-27 02:44 | 30.56931 | -24.67667 | 35203 ft | 470 kts | 19° |
| 2026-04-27 02:45 | 30.62791 | -24.64313 | 35195 ft | 468 kts | 19° |
| 2026-04-27 02:45 | 30.68624 | -24.60971 | 35197 ft | 466 kts | 19° |
| 2026-04-27 02:46 | 30.74434 | -24.57638 | 35207 ft | 465 kts | 19° |
| 2026-04-27 02:46 | 30.80237 | -24.54306 | 35199 ft | 465 kts | 19° |
| 2026-04-27 02:47 | 30.86037 | -24.50970 | 35199 ft | 465 kts | 20° |
| 2026-04-27 02:47 | 30.91841 | -24.47627 | 35201 ft | 465 kts | 20° |
| 2026-04-27 02:48 | 30.97646 | -24.44279 | 35203 ft | 466 kts | 20° |
| 2026-04-27 02:48 | 31.03425 | -24.40942 | 35202 ft | 467 kts | 20° |
| 2026-04-27 02:49 | 31.09251 | -24.37572 | 35220 ft | 467 kts | 20° |
| 2026-04-27 02:49 | 31.15065 | -24.34204 | 35204 ft | 466 kts | 20° |
| 2026-04-27 02:50 | 31.20858 | -24.30842 | 35197 ft | 464 kts | 20° |
| 2026-04-27 02:50 | 31.26636 | -24.27486 | 35197 ft | 463 kts | 20° |
| 2026-04-27 02:51 | 31.32393 | -24.24139 | 35207 ft | 462 kts | 20° |
| 2026-04-27 02:51 | 31.38139 | -24.20793 | 35202 ft | 461 kts | 20° |
| 2026-04-27 02:52 | 31.43876 | -24.17448 | 35198 ft | 461 kts | 20° |
| 2026-04-27 02:52 | 31.49612 | -24.14098 | 35199 ft | 461 kts | 20° |
| 2026-04-27 02:53 | 31.55351 | -24.10743 | 35204 ft | 461 kts | 20° |
| 2026-04-27 02:53 | 31.61099 | -24.07377 | 35208 ft | 462 kts | 20° |
| 2026-04-27 02:54 | 31.66851 | -24.04004 | 35199 ft | 462 kts | 20° |
| 2026-04-27 02:54 | 31.72591 | -24.00633 | 35199 ft | 461 kts | 20° |
| 2026-04-27 02:55 | 31.78329 | -23.97259 | 35200 ft | 461 kts | 20° |
| 2026-04-27 02:55 | 31.84055 | -23.93887 | 35202 ft | 460 kts | 20° |
| 2026-04-27 02:56 | 31.89774 | -23.90514 | 35204 ft | 460 kts | 20° |
| 2026-04-27 02:56 | 31.95490 | -23.87140 | 35198 ft | 460 kts | 20° |
| 2026-04-27 02:57 | 32.01204 | -23.83761 | 35199 ft | 459 kts | 20° |
| 2026-04-27 02:57 | 32.06920 | -23.80376 | 35198 ft | 459 kts | 20° |
| 2026-04-27 02:58 | 32.12631 | -23.76990 | 35198 ft | 460 kts | 20° |
| 2026-04-27 02:58 | 32.18340 | -23.73599 | 35219 ft | 460 kts | 20° |
| 2026-04-27 02:59 | 32.24055 | -23.70201 | 35202 ft | 459 kts | 20° |
| 2026-04-27 02:59 | 32.29757 | -23.66804 | 35200 ft | 458 kts | 20° |
| 2026-04-27 03:00 | 32.35444 | -23.63412 | 35201 ft | 457 kts | 20° |
| 2026-04-27 03:00 | 32.41118 | -23.60024 | 35202 ft | 457 kts | 20° |
| 2026-04-27 03:01 | 32.46790 | -23.56633 | 35211 ft | 457 kts | 20° |
| 2026-04-27 03:01 | 32.52421 | -23.53261 | 35204 ft | 457 kts | 20° |
| 2026-04-27 03:02 | 32.58098 | -23.49857 | 35208 ft | 457 kts | 20° |
| 2026-04-27 03:02 | 32.63774 | -23.46448 | 35202 ft | 457 kts | 20° |
| 2026-04-27 03:03 | 32.72296 | -23.41320 | 35228 ft | 458 kts | 20° |
| 2026-04-27 03:04 | 32.77977 | -23.37896 | 35195 ft | 458 kts | 20° |
| 2026-04-27 03:04 | 32.83647 | -23.34472 | 35214 ft | 457 kts | 20° |
| 2026-04-27 03:05 | 32.89312 | -23.31047 | 35208 ft | 456 kts | 20° |
| 2026-04-27 03:05 | 32.94969 | -23.27623 | 35206 ft | 456 kts | 20° |
| 2026-04-27 03:06 | 33.00623 | -23.24195 | 35209 ft | 456 kts | 21° |
| 2026-04-27 03:06 | 33.06268 | -23.20768 | 35205 ft | 456 kts | 21° |
| 2026-04-27 03:07 | 33.11912 | -23.17337 | 35204 ft | 456 kts | 21° |
| 2026-04-27 03:07 | 33.16609 | -23.14478 | 35205 ft | 456 kts | 21° |
| 2026-04-27 03:08 | 33.22255 | -23.11036 | 35204 ft | 456 kts | 21° |
| 2026-04-27 03:08 | 33.27899 | -23.07590 | 35214 ft | 455 kts | 21° |
| 2026-04-27 03:09 | 33.33532 | -23.04144 | 35206 ft | 454 kts | 21° |
| 2026-04-27 03:09 | 33.39149 | -23.00705 | 35206 ft | 453 kts | 21° |
| 2026-04-27 03:10 | 33.44760 | -22.97265 | 35207 ft | 453 kts | 21° |
| 2026-04-27 03:10 | 33.50360 | -22.93827 | 35210 ft | 452 kts | 21° |
| 2026-04-27 03:11 | 33.55963 | -22.90381 | 35216 ft | 453 kts | 21° |
| 2026-04-27 03:11 | 33.61573 | -22.86926 | 35210 ft | 454 kts | 21° |
| 2026-04-27 03:12 | 33.67187 | -22.83464 | 35208 ft | 454 kts | 21° |
| 2026-04-27 03:12 | 33.72813 | -22.79989 | 35207 ft | 455 kts | 21° |
| 2026-04-27 03:13 | 33.78444 | -22.76505 | 35214 ft | 455 kts | 21° |
| 2026-04-27 03:13 | 33.84037 | -22.73039 | 35207 ft | 455 kts | 21° |
| 2026-04-27 03:14 | 33.89655 | -22.69552 | 35209 ft | 454 kts | 21° |
| 2026-04-27 03:14 | 33.95264 | -22.66067 | 35209 ft | 453 kts | 21° |
| 2026-04-27 03:15 | 34.00862 | -22.62583 | 35209 ft | 453 kts | 21° |
| 2026-04-27 03:15 | 34.06455 | -22.59097 | 35209 ft | 452 kts | 21° |
| 2026-04-27 03:16 | 34.12044 | -22.55609 | 35215 ft | 452 kts | 21° |
| 2026-04-27 03:16 | 34.17640 | -22.52111 | 35209 ft | 453 kts | 21° |
| 2026-04-27 03:17 | 34.23236 | -22.48608 | 35209 ft | 453 kts | 21° |
| 2026-04-27 03:17 | 34.28839 | -22.45095 | 35233 ft | 454 kts | 21° |
| 2026-04-27 03:18 | 34.34444 | -22.41575 | 35216 ft | 454 kts | 21° |
| 2026-04-27 03:18 | 34.40040 | -22.38054 | 35213 ft | 453 kts | 21° |
| 2026-04-27 03:19 | 34.45633 | -22.34531 | 35211 ft | 453 kts | 21° |
| 2026-04-27 03:19 | 34.51217 | -22.31009 | 35213 ft | 452 kts | 21° |
| 2026-04-27 03:20 | 34.56798 | -22.27483 | 35210 ft | 452 kts | 21° |
| 2026-04-27 03:20 | 34.62379 | -22.23951 | 35213 ft | 452 kts | 21° |
| 2026-04-27 03:21 | 34.67961 | -22.20414 | 35213 ft | 453 kts | 22° |
| 2026-04-27 03:21 | 34.73552 | -22.16865 | 35213 ft | 453 kts | 22° |
| 2026-04-27 03:22 | 34.79143 | -22.13311 | 35212 ft | 454 kts | 22° |
| 2026-04-27 03:22 | 34.84740 | -22.09747 | 35213 ft | 454 kts | 22° |
| 2026-04-27 03:23 | 34.90304 | -22.06198 | 35213 ft | 454 kts | 22° |
| 2026-04-27 03:23 | 34.95905 | -22.02621 | 35221 ft | 455 kts | 22° |
| 2026-04-27 03:24 | 35.01529 | -21.99101 | 35211 ft | 453 kts | 20° |
| 2026-04-27 03:24 | 35.07247 | -21.95884 | 35211 ft | 452 kts | 19° |
| 2026-04-27 03:25 | 35.12979 | -21.92723 | 35215 ft | 452 kts | 19° |
| 2026-04-27 03:25 | 35.18707 | -21.89542 | 35217 ft | 452 kts | 19° |
| 2026-04-27 03:26 | 35.24429 | -21.86339 | 35213 ft | 452 kts | 19° |
| 2026-04-27 03:26 | 35.30153 | -21.83122 | 35214 ft | 452 kts | 19° |
| 2026-04-27 03:27 | 35.35873 | -21.79902 | 35235 ft | 452 kts | 20° |
| 2026-04-27 03:27 | 35.41590 | -21.76679 | 35220 ft | 452 kts | 20° |
| 2026-04-27 03:28 | 35.47265 | -21.73475 | 35222 ft | 451 kts | 20° |
| 2026-04-27 03:28 | 35.53007 | -21.70229 | 35217 ft | 451 kts | 20° |
| 2026-04-27 03:29 | 35.58702 | -21.67004 | 35216 ft | 451 kts | 20° |
| 2026-04-27 03:29 | 35.64355 | -21.63798 | 35218 ft | 450 kts | 20° |
| 2026-04-27 03:30 | 35.70041 | -21.60568 | 35215 ft | 450 kts | 20° |
| 2026-04-27 03:30 | 35.75733 | -21.57330 | 35219 ft | 451 kts | 20° |
| 2026-04-27 03:31 | 35.81428 | -21.54085 | 35219 ft | 451 kts | 20° |
| 2026-04-27 03:31 | 35.87133 | -21.50829 | 35220 ft | 452 kts | 20° |
| 2026-04-27 03:32 | 35.92841 | -21.47566 | 35218 ft | 452 kts | 20° |
| 2026-04-27 03:32 | 35.98559 | -21.44293 | 35218 ft | 454 kts | 21° |
| 2026-04-27 03:33 | 36.04296 | -21.41002 | 35225 ft | 455 kts | 21° |
| 2026-04-27 03:33 | 36.10043 | -21.37701 | 35224 ft | 456 kts | 21° |
| 2026-04-27 03:34 | 36.15801 | -21.34388 | 35222 ft | 457 kts | 21° |
| 2026-04-27 03:34 | 36.21561 | -21.31068 | 35221 ft | 457 kts | 21° |
| 2026-04-27 03:35 | 36.27323 | -21.27742 | 35223 ft | 457 kts | 21° |
| 2026-04-27 03:35 | 36.33091 | -21.24407 | 35224 ft | 457 kts | 21° |
| 2026-04-27 03:36 | 36.38855 | -21.21068 | 35227 ft | 457 kts | 21° |
| 2026-04-27 03:36 | 36.44584 | -21.17745 | 35229 ft | 457 kts | 21° |
| 2026-04-27 03:37 | 36.50346 | -21.14397 | 35224 ft | 457 kts | 21° |
| 2026-04-27 03:37 | 36.56126 | -21.11034 | 35232 ft | 460 kts | 22° |
| 2026-04-27 03:38 | 36.61940 | -21.07645 | 35227 ft | 462 kts | 22° |
| 2026-04-27 03:38 | 36.67778 | -21.04236 | 35226 ft | 464 kts | 22° |
| 2026-04-27 03:39 | 36.73634 | -21.00810 | 35224 ft | 465 kts | 22° |
| 2026-04-27 03:39 | 36.79502 | -20.97372 | 35225 ft | 467 kts | 22° |
| 2026-04-27 03:40 | 36.85384 | -20.93919 | 35227 ft | 467 kts | 22° |
| 2026-04-27 03:40 | 36.91270 | -20.90458 | 35226 ft | 467 kts | 22° |
| 2026-04-27 03:41 | 36.97153 | -20.86993 | 35225 ft | 467 kts | 22° |
| 2026-04-27 03:41 | 37.03033 | -20.83524 | 35222 ft | 467 kts | 22° |
| 2026-04-27 03:42 | 37.08918 | -20.80047 | 35234 ft | 468 kts | 23° |
| 2026-04-27 03:42 | 37.14829 | -20.76547 | 35231 ft | 471 kts | 23° |
| 2026-04-27 03:43 | 37.20777 | -20.73021 | 35236 ft | 474 kts | 23° |
| 2026-04-27 03:43 | 37.26712 | -20.69495 | 35233 ft | 476 kts | 23° |
| 2026-04-27 03:44 | 37.32741 | -20.65907 | 35230 ft | 477 kts | 23° |
| 2026-04-27 03:44 | 37.38700 | -20.62354 | 35231 ft | 477 kts | 23° |
| 2026-04-27 03:45 | 37.44696 | -20.58772 | 35226 ft | 477 kts | 23° |
| 2026-04-27 03:45 | 37.50682 | -20.55191 | 35229 ft | 476 kts | 24° |
| 2026-04-27 03:46 | 37.56661 | -20.51608 | 35230 ft | 476 kts | 24° |
| 2026-04-27 03:46 | 37.62638 | -20.48019 | 35231 ft | 476 kts | 24° |
| 2026-04-27 03:47 | 37.68610 | -20.44427 | 35237 ft | 476 kts | 24° |
| 2026-04-27 03:47 | 37.74594 | -20.40820 | 35234 ft | 477 kts | 24° |
| 2026-04-27 03:48 | 37.80589 | -20.37201 | 35234 ft | 478 kts | 24° |
| 2026-04-27 03:48 | 37.86590 | -20.33572 | 35234 ft | 478 kts | 24° |
| 2026-04-27 03:49 | 37.92596 | -20.29933 | 35238 ft | 479 kts | 24° |
| 2026-04-27 03:49 | 37.98603 | -20.26287 | 35237 ft | 479 kts | 24° |
| 2026-04-27 03:50 | 38.04615 | -20.22632 | 35236 ft | 479 kts | 24° |
| 2026-04-27 03:50 | 38.10628 | -20.18968 | 35239 ft | 479 kts | 24° |
| 2026-04-27 03:51 | 38.16643 | -20.15297 | 35241 ft | 479 kts | 24° |
| 2026-04-27 03:51 | 38.22654 | -20.11622 | 35243 ft | 480 kts | 25° |
| 2026-04-27 03:52 | 38.28670 | -20.07937 | 35244 ft | 480 kts | 25° |
| 2026-04-27 03:52 | 38.34649 | -20.04267 | 35241 ft | 480 kts | 25° |
| 2026-04-27 03:53 | 38.40667 | -20.00567 | 35242 ft | 480 kts | 25° |
| 2026-04-27 03:53 | 38.46686 | -19.96859 | 35241 ft | 481 kts | 25° |
| 2026-04-27 03:54 | 38.52710 | -19.93142 | 35234 ft | 481 kts | 25° |
| 2026-04-27 03:54 | 38.58733 | -19.89418 | 35239 ft | 481 kts | 25° |
| 2026-04-27 03:55 | 38.64761 | -19.85684 | 35238 ft | 481 kts | 25° |
| 2026-04-27 03:55 | 38.70783 | -19.81946 | 35243 ft | 481 kts | 25° |
| 2026-04-27 03:56 | 38.76810 | -19.78199 | 35246 ft | 481 kts | 25° |
| 2026-04-27 03:56 | 38.81853 | -19.75058 | 35243 ft | 482 kts | 25° |
| 2026-04-27 03:57 | 38.87883 | -19.71296 | 35245 ft | 482 kts | 25° |
| 2026-04-27 03:57 | 38.93865 | -19.67556 | 35245 ft | 482 kts | 25° |
| 2026-04-27 03:58 | 38.99895 | -19.63780 | 35247 ft | 482 kts | 25° |
| 2026-04-27 03:58 | 39.05919 | -19.59999 | 35248 ft | 482 kts | 25° |
| 2026-04-27 03:59 | 39.11939 | -19.56214 | 35248 ft | 482 kts | 25° |
| 2026-04-27 03:59 | 39.17957 | -19.52423 | 35249 ft | 482 kts | 25° |
| 2026-04-27 04:00 | 39.23977 | -19.48624 | 35248 ft | 481 kts | 25° |
| 2026-04-27 04:00 | 39.29992 | -19.44820 | 35253 ft | 481 kts | 25° |
| 2026-04-27 04:01 | 39.36009 | -19.41008 | 35253 ft | 482 kts | 25° |
| 2026-04-27 04:01 | 39.42020 | -19.37192 | 35248 ft | 482 kts | 25° |
| 2026-04-27 04:02 | 39.48030 | -19.33370 | 35248 ft | 482 kts | 25° |
| 2026-04-27 04:02 | 39.54046 | -19.29536 | 35251 ft | 482 kts | 25° |
| 2026-04-27 04:03 | 39.60060 | -19.25697 | 35248 ft | 482 kts | 25° |
| 2026-04-27 04:03 | 39.66067 | -19.21854 | 35253 ft | 482 kts | 25° |
| 2026-04-27 04:04 | 39.72038 | -19.18026 | 35250 ft | 481 kts | 25° |
| 2026-04-27 04:04 | 39.78038 | -19.14173 | 35256 ft | 480 kts | 25° |
| 2026-04-27 04:05 | 39.84061 | -19.10296 | 35251 ft | 480 kts | 25° |
| 2026-04-27 04:05 | 39.90039 | -19.06442 | 35252 ft | 479 kts | 25° |
| 2026-04-27 04:06 | 39.96007 | -19.02586 | 35253 ft | 479 kts | 25° |
| 2026-04-27 04:06 | 40.01821 | -18.98486 | 35257 ft | 478 kts | 33° |
| 2026-04-27 04:07 | 40.09983 | -18.91033 | 35239 ft | 477 kts | 34° |
| 2026-04-27 04:07 | 40.15401 | -18.86042 | 35258 ft | 476 kts | 34° |
| 2026-04-27 04:08 | 40.20822 | -18.81083 | 35254 ft | 475 kts | 34° |
| 2026-04-27 04:08 | 40.26250 | -18.76127 | 35531 ft | 475 kts | 34° |
| 2026-04-27 04:09 | 40.28956 | -18.73655 | 35894 ft | 473 kts | 34° |
| 2026-04-27 04:09 | 40.31649 | -18.71191 | 36227 ft | 472 kts | 34° |
| 2026-04-27 04:09 | 40.34341 | -18.68727 | 36507 ft | 472 kts | 34° |
| 2026-04-27 04:09 | 40.37029 | -18.66262 | 36783 ft | 472 kts | 34° |
| 2026-04-27 04:10 | 40.39718 | -18.63795 | 37028 ft | 472 kts | 34° |
| 2026-04-27 04:10 | 40.42406 | -18.61325 | 37183 ft | 473 kts | 34° |
| 2026-04-27 04:10 | 40.47803 | -18.56359 | 37253 ft | 473 kts | 34° |
| 2026-04-27 04:11 | 40.53158 | -18.51421 | 37242 ft | 467 kts | 34° |
| 2026-04-27 04:11 | 40.58449 | -18.46532 | 37248 ft | 463 kts | 34° |
| 2026-04-27 04:12 | 40.63711 | -18.41662 | 37256 ft | 465 kts | 34° |
| 2026-04-27 04:12 | 40.69048 | -18.36712 | 37260 ft | 473 kts | 34° |
| 2026-04-27 04:13 | 40.74432 | -18.31709 | 37257 ft | 474 kts | 34° |
| 2026-04-27 04:13 | 40.79821 | -18.26691 | 37251 ft | 474 kts | 34° |
| 2026-04-27 04:14 | 40.85194 | -18.21676 | 37252 ft | 472 kts | 34° |
| 2026-04-27 04:14 | 40.90516 | -18.16700 | 37252 ft | 471 kts | 34° |
| 2026-04-27 04:15 | 40.95856 | -18.11696 | 37254 ft | 470 kts | 34° |
| 2026-04-27 04:15 | 41.01179 | -18.06699 | 37259 ft | 469 kts | 34° |
| 2026-04-27 04:16 | 41.06496 | -18.01698 | 37255 ft | 469 kts | 34° |
| 2026-04-27 04:16 | 41.11808 | -17.96691 | 37257 ft | 469 kts | 34° |
| 2026-04-27 04:17 | 41.17116 | -17.91677 | 37259 ft | 469 kts | 34° |
| 2026-04-27 04:17 | 41.22436 | -17.86642 | 37260 ft | 470 kts | 34° |
| 2026-04-27 04:18 | 41.27761 | -17.81592 | 37256 ft | 470 kts | 34° |
| 2026-04-27 04:18 | 41.33085 | -17.76532 | 37256 ft | 471 kts | 34° |
| 2026-04-27 04:19 | 41.38412 | -17.71458 | 37259 ft | 471 kts | 35° |
| 2026-04-27 04:19 | 41.43744 | -17.66371 | 37265 ft | 472 kts | 34° |
| 2026-04-27 04:20 | 41.49079 | -17.61269 | 37239 ft | 472 kts | 35° |
| 2026-04-27 04:20 | 41.54417 | -17.56154 | 37263 ft | 472 kts | 35° |
| 2026-04-27 04:21 | 41.59750 | -17.51034 | 37263 ft | 472 kts | 35° |
| 2026-04-27 04:21 | 41.65082 | -17.45903 | 37259 ft | 472 kts | 35° |
| 2026-04-27 04:22 | 41.70408 | -17.40768 | 37257 ft | 472 kts | 35° |
| 2026-04-27 04:22 | 41.75731 | -17.35625 | 37256 ft | 472 kts | 35° |
| 2026-04-27 04:23 | 41.81046 | -17.30478 | 37258 ft | 471 kts | 35° |
| 2026-04-27 04:23 | 41.86361 | -17.25321 | 37259 ft | 472 kts | 35° |
| 2026-04-27 04:24 | 41.91673 | -17.20157 | 37262 ft | 472 kts | 35° |
| 2026-04-27 04:24 | 41.96983 | -17.14983 | 37264 ft | 472 kts | 35° |
| 2026-04-27 04:25 | 42.02292 | -17.09799 | 37265 ft | 471 kts | 35° |
| 2026-04-27 04:25 | 42.07563 | -17.04642 | 37266 ft | 471 kts | 35° |
| 2026-04-27 04:26 | 42.12868 | -16.99440 | 37269 ft | 472 kts | 35° |
| 2026-04-27 04:26 | 42.18175 | -16.94225 | 37256 ft | 472 kts | 35° |
| 2026-04-27 04:27 | 42.23482 | -16.89000 | 37262 ft | 472 kts | 35° |
| 2026-04-27 04:27 | 42.28787 | -16.83766 | 37258 ft | 472 kts | 35° |
| 2026-04-27 04:28 | 42.34089 | -16.78522 | 37277 ft | 472 kts | 35° |
| 2026-04-27 04:28 | 42.39388 | -16.73271 | 37264 ft | 472 kts | 35° |
| 2026-04-27 04:29 | 42.44684 | -16.68011 | 37263 ft | 472 kts | 35° |
| 2026-04-27 04:29 | 42.49978 | -16.62742 | 37260 ft | 472 kts | 35° |
| 2026-04-27 04:30 | 42.55268 | -16.57466 | 37267 ft | 472 kts | 35° |
| 2026-04-27 04:30 | 42.60553 | -16.52184 | 37263 ft | 472 kts | 35° |
| 2026-04-27 04:31 | 42.65836 | -16.46891 | 37271 ft | 472 kts | 35° |
| 2026-04-27 04:31 | 42.71119 | -16.41588 | 37267 ft | 472 kts | 35° |
| 2026-04-27 04:32 | 42.76400 | -16.36274 | 37268 ft | 472 kts | 35° |
| 2026-04-27 04:32 | 42.81674 | -16.30957 | 37273 ft | 472 kts | 35° |
| 2026-04-27 04:33 | 42.86957 | -16.25619 | 37276 ft | 472 kts | 35° |
| 2026-04-27 04:33 | 42.92231 | -16.20279 | 37272 ft | 473 kts | 35° |
| 2026-04-27 04:34 | 42.97508 | -16.14923 | 37272 ft | 473 kts | 35° |
| 2026-04-27 04:34 | 43.02781 | -16.09560 | 37272 ft | 473 kts | 36° |
| 2026-04-27 04:35 | 43.08055 | -16.04184 | 37267 ft | 473 kts | 36° |
| 2026-04-27 04:35 | 43.13320 | -15.98805 | 37285 ft | 472 kts | 36° |
| 2026-04-27 04:36 | 43.18554 | -15.93447 | 37274 ft | 473 kts | 36° |
| 2026-04-27 04:36 | 43.23825 | -15.88038 | 37272 ft | 473 kts | 36° |
| 2026-04-27 04:37 | 43.29094 | -15.82620 | 37276 ft | 473 kts | 36° |
| 2026-04-27 04:37 | 43.34362 | -15.77191 | 37280 ft | 474 kts | 36° |
| 2026-04-27 04:38 | 43.39627 | -15.71753 | 37277 ft | 473 kts | 36° |
| 2026-04-27 04:38 | 43.44891 | -15.66303 | 37279 ft | 473 kts | 36° |
| 2026-04-27 04:39 | 43.50153 | -15.60843 | 37284 ft | 474 kts | 36° |
| 2026-04-27 04:39 | 43.55412 | -15.55375 | 37285 ft | 474 kts | 36° |
| 2026-04-27 04:40 | 43.60674 | -15.49891 | 37280 ft | 474 kts | 36° |
| 2026-04-27 04:40 | 43.65936 | -15.44395 | 37283 ft | 474 kts | 36° |
| 2026-04-27 04:41 | 43.71194 | -15.38889 | 37280 ft | 474 kts | 36° |
| 2026-04-27 04:41 | 43.76450 | -15.33375 | 37285 ft | 474 kts | 36° |
| 2026-04-27 04:42 | 43.81707 | -15.27846 | 37285 ft | 474 kts | 36° |
| 2026-04-27 04:42 | 43.86958 | -15.22312 | 37286 ft | 474 kts | 36° |
| 2026-04-27 04:43 | 43.91321 | -15.17703 | 37288 ft | 474 kts | 36° |
| 2026-04-27 04:43 | 43.96566 | -15.12152 | 37288 ft | 474 kts | 36° |
| 2026-04-27 04:44 | 44.01814 | -15.06584 | 37285 ft | 474 kts | 36° |
| 2026-04-27 04:44 | 44.07052 | -15.01015 | 37285 ft | 474 kts | 36° |
| 2026-04-27 04:45 | 44.12286 | -14.95437 | 37288 ft | 474 kts | 36° |
| 2026-04-27 04:45 | 44.17523 | -14.89844 | 37293 ft | 474 kts | 36° |
| 2026-04-27 04:46 | 44.22758 | -14.84239 | 37295 ft | 475 kts | 36° |
| 2026-04-27 04:46 | 44.27990 | -14.78625 | 37295 ft | 475 kts | 36° |
| 2026-04-27 04:47 | 44.33219 | -14.73001 | 37293 ft | 474 kts | 36° |
| 2026-04-27 04:47 | 44.38446 | -14.67365 | 37288 ft | 475 kts | 36° |
| 2026-04-27 04:48 | 44.43676 | -14.61714 | 37294 ft | 475 kts | 36° |
| 2026-04-27 04:48 | 44.48899 | -14.56058 | 37292 ft | 475 kts | 36° |
| 2026-04-27 04:49 | 44.54118 | -14.50391 | 37294 ft | 474 kts | 36° |
| 2026-04-27 04:49 | 44.59328 | -14.44722 | 37296 ft | 474 kts | 36° |
| 2026-04-27 04:50 | 44.64536 | -14.39041 | 37300 ft | 474 kts | 36° |
| 2026-04-27 04:50 | 44.69739 | -14.33354 | 37305 ft | 474 kts | 36° |
| 2026-04-27 04:51 | 44.74933 | -14.27662 | 37300 ft | 473 kts | 36° |
| 2026-04-27 04:51 | 44.80123 | -14.21961 | 37302 ft | 473 kts | 37° |
| 2026-04-27 04:52 | 44.85303 | -14.16258 | 37306 ft | 473 kts | 36° |
| 2026-04-27 04:52 | 44.90484 | -14.10540 | 37316 ft | 473 kts | 37° |
| 2026-04-27 04:53 | 44.95659 | -14.04816 | 37300 ft | 472 kts | 37° |
| 2026-04-27 04:53 | 45.00874 | -13.99179 | 37300 ft | 471 kts | 32° |
| 2026-04-27 04:54 | 45.06433 | -13.94297 | 37296 ft | 470 kts | 30° |
| 2026-04-27 04:54 | 45.12031 | -13.89519 | 37304 ft | 470 kts | 30° |
| 2026-04-27 04:55 | 45.17616 | -13.84706 | 37310 ft | 470 kts | 30° |
| 2026-04-27 04:55 | 45.23195 | -13.79852 | 37305 ft | 470 kts | 30° |
| 2026-04-27 04:56 | 45.28760 | -13.74983 | 37309 ft | 470 kts | 30° |
| 2026-04-27 04:56 | 45.34327 | -13.70101 | 37314 ft | 470 kts | 30° |
| 2026-04-27 04:57 | 45.39844 | -13.65252 | 37317 ft | 469 kts | 30° |
| 2026-04-27 04:57 | 45.45400 | -13.60359 | 37313 ft | 469 kts | 30° |
| 2026-04-27 04:58 | 45.50944 | -13.55466 | 37312 ft | 469 kts | 30° |
| 2026-04-27 04:58 | 45.56482 | -13.50566 | 37316 ft | 468 kts | 30° |
| 2026-04-27 04:59 | 45.62009 | -13.45665 | 37319 ft | 467 kts | 30° |
| 2026-04-27 04:59 | 45.67529 | -13.40758 | 37329 ft | 467 kts | 30° |
| 2026-04-27 05:00 | 45.73036 | -13.35852 | 37320 ft | 467 kts | 30° |
| 2026-04-27 05:00 | 45.78547 | -13.30930 | 37320 ft | 466 kts | 30° |
| 2026-04-27 05:01 | 45.84043 | -13.26010 | 37323 ft | 466 kts | 30° |
| 2026-04-27 05:01 | 45.89537 | -13.21080 | 37320 ft | 465 kts | 30° |
| 2026-04-27 05:02 | 45.95023 | -13.16145 | 37321 ft | 465 kts | 30° |
| 2026-04-27 05:03 | 46.03251 | -13.08723 | 37320 ft | 466 kts | 30° |
| 2026-04-27 05:03 | 46.08738 | -13.03759 | 37324 ft | 466 kts | 30° |
| 2026-04-27 05:04 | 46.14226 | -12.98781 | 37321 ft | 467 kts | 30° |
| 2026-04-27 05:04 | 46.19723 | -12.93784 | 37321 ft | 467 kts | 30° |
| 2026-04-27 05:05 | 46.25217 | -12.88777 | 37331 ft | 467 kts | 30° |
| 2026-04-27 05:05 | 46.30710 | -12.83759 | 37328 ft | 467 kts | 30° |
| 2026-04-27 05:06 | 46.36201 | -12.78731 | 37325 ft | 467 kts | 30° |
| 2026-04-27 05:06 | 46.41688 | -12.73694 | 37326 ft | 467 kts | 30° |
| 2026-04-27 05:07 | 46.47177 | -12.68644 | 37329 ft | 467 kts | 31° |
| 2026-04-27 05:07 | 46.52658 | -12.63588 | 37331 ft | 466 kts | 31° |
| 2026-04-27 05:08 | 46.58128 | -12.58531 | 37327 ft | 465 kts | 31° |
| 2026-04-27 05:08 | 46.63580 | -12.53477 | 37331 ft | 464 kts | 31° |
| 2026-04-27 05:09 | 46.69022 | -12.48422 | 37331 ft | 464 kts | 31° |
| 2026-04-27 05:09 | 46.74459 | -12.43358 | 37335 ft | 463 kts | 31° |
| 2026-04-27 05:10 | 46.79878 | -12.38299 | 37330 ft | 462 kts | 31° |
| 2026-04-27 05:10 | 46.85290 | -12.33234 | 37342 ft | 462 kts | 31° |
| 2026-04-27 05:11 | 46.90697 | -12.28161 | 37339 ft | 462 kts | 31° |
| 2026-04-27 05:11 | 46.96114 | -12.23067 | 37339 ft | 463 kts | 31° |
| 2026-04-27 05:12 | 47.01534 | -12.17958 | 37331 ft | 463 kts | 31° |
| 2026-04-27 05:12 | 47.06952 | -12.12838 | 37335 ft | 463 kts | 31° |
| 2026-04-27 05:13 | 47.12370 | -12.07705 | 37333 ft | 463 kts | 31° |
| 2026-04-27 05:13 | 47.17778 | -12.02568 | 37358 ft | 463 kts | 31° |
| 2026-04-27 05:14 | 47.23194 | -11.97412 | 37343 ft | 464 kts | 31° |
| 2026-04-27 05:14 | 47.28610 | -11.92243 | 37345 ft | 464 kts | 31° |
| 2026-04-27 05:15 | 47.34025 | -11.87062 | 37345 ft | 464 kts | 31° |
| 2026-04-27 05:15 | 47.39433 | -11.81875 | 37344 ft | 464 kts | 31° |
| 2026-04-27 05:16 | 47.44837 | -11.76679 | 37347 ft | 463 kts | 31° |
| 2026-04-27 05:16 | 47.50222 | -11.71488 | 37357 ft | 462 kts | 31° |
| 2026-04-27 05:17 | 47.55604 | -11.66287 | 37350 ft | 462 kts | 31° |
| 2026-04-27 05:17 | 47.60949 | -11.61109 | 37343 ft | 462 kts | 31° |
| 2026-04-27 05:18 | 47.66327 | -11.55887 | 37348 ft | 461 kts | 32° |
| 2026-04-27 05:18 | 47.71691 | -11.50665 | 37346 ft | 461 kts | 32° |
| 2026-04-27 05:19 | 47.77054 | -11.45430 | 37347 ft | 461 kts | 32° |
| 2026-04-27 05:19 | 47.82414 | -11.40186 | 37349 ft | 462 kts | 32° |
| 2026-04-27 05:20 | 47.87783 | -11.34920 | 37346 ft | 462 kts | 32° |
| 2026-04-27 05:20 | 47.93144 | -11.29647 | 37344 ft | 462 kts | 32° |
| 2026-04-27 05:21 | 47.98505 | -11.24362 | 37348 ft | 462 kts | 32° |
| 2026-04-27 05:21 | 48.03857 | -11.19071 | 37341 ft | 461 kts | 32° |
| 2026-04-27 05:22 | 48.09204 | -11.13773 | 37345 ft | 461 kts | 32° |
| 2026-04-27 05:22 | 48.14552 | -11.08461 | 37362 ft | 461 kts | 32° |
| 2026-04-27 05:23 | 48.19893 | -11.03141 | 37341 ft | 461 kts | 32° |
| 2026-04-27 05:23 | 48.25235 | -10.97808 | 37338 ft | 461 kts | 32° |
| 2026-04-27 05:24 | 48.30569 | -10.92468 | 37339 ft | 461 kts | 32° |
| 2026-04-27 05:24 | 48.35904 | -10.87114 | 37361 ft | 461 kts | 32° |
| 2026-04-27 05:25 | 48.41236 | -10.81748 | 37359 ft | 461 kts | 32° |
| 2026-04-27 05:25 | 48.45669 | -10.77278 | 37349 ft | 462 kts | 32° |
| 2026-04-27 05:26 | 48.51919 | -10.70958 | 37344 ft | 463 kts | 32° |
| 2026-04-27 05:26 | 48.56367 | -10.66448 | 37343 ft | 464 kts | 32° |
| 2026-04-27 05:27 | 48.61723 | -10.61005 | 37347 ft | 464 kts | 32° |
| 2026-04-27 05:27 | 48.67075 | -10.55552 | 37341 ft | 464 kts | 32° |
| 2026-04-27 05:28 | 48.72271 | -10.49777 | 37357 ft | 464 kts | 40° |
| 2026-04-27 05:28 | 48.76754 | -10.42733 | 37347 ft | 466 kts | 48° |
| 2026-04-27 05:29 | 48.80872 | -10.35140 | 37342 ft | 466 kts | 49° |
| 2026-04-27 05:29 | 48.84994 | -10.27537 | 37339 ft | 466 kts | 49° |
| 2026-04-27 05:30 | 48.89135 | -10.19955 | 37337 ft | 466 kts | 48° |
| 2026-04-27 05:30 | 48.93274 | -10.12375 | 37355 ft | 466 kts | 49° |
| 2026-04-27 05:31 | 48.97406 | -10.04783 | 37337 ft | 466 kts | 49° |
| 2026-04-27 05:31 | 49.01498 | -9.97201 | 37337 ft | 467 kts | 49° |
| 2026-04-27 05:32 | 49.05526 | -9.89432 | 37331 ft | 467 kts | 50° |
| 2026-04-27 05:32 | 49.09530 | -9.81616 | 37332 ft | 468 kts | 50° |
| 2026-04-27 05:33 | 49.13538 | -9.73798 | 37340 ft | 467 kts | 50° |
| 2026-04-27 05:33 | 49.17547 | -9.65980 | 37329 ft | 467 kts | 50° |
| 2026-04-27 05:34 | 49.21554 | -9.58153 | 37327 ft | 467 kts | 50° |
| 2026-04-27 05:34 | 49.25556 | -9.50311 | 37329 ft | 467 kts | 50° |
| 2026-04-27 05:35 | 49.29548 | -9.42465 | 37325 ft | 467 kts | 50° |
| 2026-04-27 05:35 | 49.33538 | -9.34597 | 37329 ft | 467 kts | 50° |
| 2026-04-27 05:36 | 49.37517 | -9.26730 | 37327 ft | 467 kts | 50° |
| 2026-04-27 05:36 | 49.41496 | -9.18838 | 37325 ft | 466 kts | 50° |
| 2026-04-27 05:37 | 49.45453 | -9.10966 | 37321 ft | 465 kts | 50° |
| 2026-04-27 05:37 | 49.49405 | -9.03081 | 37326 ft | 465 kts | 50° |
| 2026-04-27 05:38 | 49.53342 | -8.95203 | 37326 ft | 465 kts | 51° |
| 2026-04-27 05:38 | 49.57279 | -8.87301 | 37327 ft | 465 kts | 51° |
| 2026-04-27 05:39 | 49.61216 | -8.79377 | 37320 ft | 466 kts | 51° |
| 2026-04-27 05:39 | 49.65151 | -8.71431 | 37323 ft | 466 kts | 51° |
| 2026-04-27 05:40 | 49.69083 | -8.63467 | 37314 ft | 466 kts | 51° |
| 2026-04-27 05:40 | 49.73007 | -8.55497 | 37328 ft | 466 kts | 51° |
| 2026-04-27 05:41 | 49.76908 | -8.47550 | 37316 ft | 467 kts | 51° |
| 2026-04-27 05:41 | 49.80827 | -8.39540 | 37319 ft | 467 kts | 51° |
| 2026-04-27 05:42 | 49.84740 | -8.31520 | 37322 ft | 467 kts | 51° |
| 2026-04-27 05:42 | 49.88655 | -8.23469 | 37318 ft | 467 kts | 51° |
| 2026-04-27 05:43 | 49.92560 | -8.15415 | 37322 ft | 467 kts | 51° |
| 2026-04-27 05:43 | 49.96465 | -8.07340 | 37317 ft | 468 kts | 51° |
| 2026-04-27 05:44 | 50.00086 | -7.98935 | 37317 ft | 469 kts | 59° |
| 2026-04-27 05:44 | 50.02745 | -7.89656 | 37322 ft | 471 kts | 66° |
| 2026-04-27 05:45 | 50.05118 | -7.80155 | 37315 ft | 471 kts | 67° |
| 2026-04-27 05:45 | 50.07494 | -7.70637 | 37316 ft | 472 kts | 67° |
| 2026-04-27 05:46 | 50.09889 | -7.61116 | 37314 ft | 472 kts | 66° |
| 2026-04-27 05:46 | 50.12274 | -7.51643 | 37314 ft | 473 kts | 66° |
| 2026-04-27 05:47 | 50.14670 | -7.42095 | 37315 ft | 473 kts | 67° |
| 2026-04-27 05:47 | 50.17059 | -7.32530 | 37311 ft | 474 kts | 67° |
| 2026-04-27 05:48 | 50.19443 | -7.22943 | 37310 ft | 474 kts | 67° |
| 2026-04-27 05:48 | 50.21818 | -7.13348 | 37308 ft | 474 kts | 67° |
| 2026-04-27 05:49 | 50.24184 | -7.03746 | 37311 ft | 473 kts | 67° |
| 2026-04-27 05:49 | 50.26542 | -6.94139 | 37308 ft | 473 kts | 67° |
| 2026-04-27 05:50 | 50.28889 | -6.84530 | 37308 ft | 473 kts | 68° |
| 2026-04-27 05:50 | 50.31231 | -6.74904 | 37306 ft | 474 kts | 68° |
| 2026-04-27 05:51 | 50.33568 | -6.65254 | 37308 ft | 475 kts | 68° |
| 2026-04-27 05:51 | 50.35901 | -6.55577 | 37307 ft | 475 kts | 68° |
| 2026-04-27 05:52 | 50.38226 | -6.45892 | 37312 ft | 476 kts | 68° |
| 2026-04-27 05:52 | 50.40548 | -6.36176 | 37305 ft | 476 kts | 68° |
| 2026-04-27 05:53 | 50.42866 | -6.26435 | 37298 ft | 477 kts | 68° |
| 2026-04-27 05:53 | 50.45176 | -6.16684 | 37305 ft | 477 kts | 68° |
| 2026-04-27 05:54 | 50.47477 | -6.06925 | 37307 ft | 477 kts | 68° |
| 2026-04-27 05:54 | 50.49758 | -5.97207 | 37302 ft | 478 kts | 68° |
| 2026-04-27 05:55 | 50.52059 | -5.87357 | 37309 ft | 478 kts | 69° |
| 2026-04-27 05:55 | 50.54341 | -5.77547 | 37303 ft | 478 kts | 69° |
| 2026-04-27 05:56 | 50.56617 | -5.67715 | 37303 ft | 478 kts | 69° |
| 2026-04-27 05:56 | 50.58883 | -5.57884 | 37304 ft | 478 kts | 69° |
| 2026-04-27 05:57 | 50.61144 | -5.48027 | 37305 ft | 478 kts | 69° |
| 2026-04-27 05:57 | 50.63397 | -5.38158 | 37300 ft | 479 kts | 69° |
| 2026-04-27 05:58 | 50.65643 | -5.28276 | 37305 ft | 479 kts | 69° |
| 2026-04-27 05:58 | 50.67883 | -5.18374 | 37306 ft | 480 kts | 69° |
| 2026-04-27 05:59 | 50.70117 | -5.08455 | 37290 ft | 480 kts | 69° |
| 2026-04-27 05:59 | 50.72340 | -4.98530 | 37304 ft | 480 kts | 69° |
| 2026-04-27 06:00 | 50.75662 | -4.83617 | 37303 ft | 480 kts | 69° |
| 2026-04-27 06:00 | 50.77851 | -4.73733 | 37303 ft | 480 kts | 69° |
| 2026-04-27 06:01 | 50.80045 | -4.63779 | 37290 ft | 480 kts | 70° |
| 2026-04-27 06:01 | 50.82231 | -4.53812 | 37312 ft | 480 kts | 70° |
| 2026-04-27 06:02 | 50.84410 | -4.43830 | 37315 ft | 480 kts | 70° |
| 2026-04-27 06:02 | 50.86583 | -4.33823 | 37314 ft | 481 kts | 70° |
| 2026-04-27 06:03 | 50.88749 | -4.23802 | 37312 ft | 481 kts | 70° |
| 2026-04-27 06:03 | 50.90910 | -4.13758 | 37300 ft | 482 kts | 70° |
| 2026-04-27 06:04 | 50.93067 | -4.03676 | 37302 ft | 484 kts | 70° |
| 2026-04-27 06:04 | 50.95223 | -3.93556 | 37305 ft | 485 kts | 70° |
| 2026-04-27 06:05 | 50.97374 | -3.83404 | 37305 ft | 486 kts | 70° |
| 2026-04-27 06:05 | 50.99518 | -3.73237 | 37307 ft | 486 kts | 71° |
| 2026-04-27 06:06 | 51.01657 | -3.63041 | 37307 ft | 487 kts | 71° |
| 2026-04-27 06:06 | 51.03791 | -3.52816 | 37325 ft | 488 kts | 71° |
| 2026-04-27 06:07 | 51.05916 | -3.42582 | 37306 ft | 488 kts | 71° |
| 2026-04-27 06:07 | 51.08035 | -3.32322 | 37304 ft | 488 kts | 71° |
| 2026-04-27 06:08 | 51.10144 | -3.22063 | 37302 ft | 489 kts | 71° |
| 2026-04-27 06:08 | 51.12231 | -3.11857 | 37300 ft | 489 kts | 72° |
| 2026-04-27 06:09 | 51.14343 | -3.01470 | 37306 ft | 489 kts | 72° |
| 2026-04-27 06:09 | 51.16432 | -2.91145 | 37308 ft | 490 kts | 72° |
| 2026-04-27 06:10 | 51.18513 | -2.80809 | 37293 ft | 490 kts | 72° |
| 2026-04-27 06:10 | 51.20585 | -2.70457 | 37312 ft | 491 kts | 72° |
| 2026-04-27 06:11 | 51.22656 | -2.60062 | 37316 ft | 492 kts | 72° |
| 2026-04-27 06:11 | 51.24718 | -2.49651 | 37306 ft | 493 kts | 72° |
| 2026-04-27 06:12 | 51.26775 | -2.39207 | 37321 ft | 493 kts | 72° |
| 2026-04-27 06:12 | 51.28810 | -2.28824 | 37306 ft | 494 kts | 72° |
| 2026-04-27 06:13 | 51.30852 | -2.18347 | 37305 ft | 494 kts | 72° |
| 2026-04-27 06:13 | 51.32887 | -2.07849 | 37311 ft | 495 kts | 72° |
| 2026-04-27 06:14 | 51.34929 | -1.97338 | 37309 ft | 495 kts | 71° |
| 2026-04-27 06:14 | 51.36856 | -1.88654 | 37309 ft | 494 kts | 69° |
| 2026-04-27 06:15 | 51.39216 | -1.78315 | 37310 ft | 495 kts | 70° |
| 2026-04-27 06:15 | 51.41470 | -1.67883 | 37312 ft | 496 kts | 72° |
| 2026-04-27 06:16 | 51.43461 | -1.57320 | 37308 ft | 496 kts | 73° |
| 2026-04-27 06:16 | 51.45374 | -1.46756 | 37296 ft | 496 kts | 73° |
| 2026-04-27 06:17 | 51.47320 | -1.36127 | 37294 ft | 497 kts | 73° |
| 2026-04-27 06:17 | 51.49284 | -1.25486 | 37294 ft | 498 kts | 73° |
| 2026-04-27 06:18 | 51.51248 | -1.14824 | 37296 ft | 498 kts | 73° |
| 2026-04-27 06:18 | 51.53203 | -1.04148 | 37295 ft | 499 kts | 73° |
| 2026-04-27 06:19 | 51.55149 | -0.93447 | 37307 ft | 499 kts | 73° |
| 2026-04-27 06:19 | 51.57086 | -0.82730 | 37312 ft | 500 kts | 73° |
| 2026-04-27 06:20 | 51.59018 | -0.71974 | 37319 ft | 501 kts | 73° |
| 2026-04-27 06:20 | 51.60944 | -0.61190 | 37315 ft | 502 kts | 73° |
| 2026-04-27 06:21 | 51.62861 | -0.50389 | 37320 ft | 502 kts | 73° |
| 2026-04-27 06:21 | 51.64769 | -0.39577 | 37268 ft | 502 kts | 74° |
| 2026-04-27 06:22 | 51.66667 | -0.28755 | 37266 ft | 502 kts | 74° |
| 2026-04-27 06:22 | 51.68555 | -0.17927 | 37272 ft | 502 kts | 74° |
| 2026-04-27 06:23 | 51.70432 | -0.07096 | 37273 ft | 501 kts | 74° |
| 2026-04-27 06:23 | 51.72285 | 0.03664 | 37314 ft | 502 kts | 74° |
| 2026-04-27 06:24 | 51.74142 | 0.14514 | 37318 ft | 502 kts | 74° |
| 2026-04-27 06:24 | 51.76003 | 0.25457 | 37318 ft | 503 kts | 74° |
| 2026-04-27 06:25 | 51.77832 | 0.36275 | 37317 ft | 503 kts | 74° |
| 2026-04-27 06:25 | 51.79665 | 0.47189 | 37314 ft | 504 kts | 74° |
| 2026-04-27 06:26 | 51.81488 | 0.58113 | 37326 ft | 504 kts | 74° |
| 2026-04-27 06:26 | 51.83306 | 0.69072 | 37318 ft | 505 kts | 75° |
| 2026-04-27 06:27 | 51.85114 | 0.80047 | 37311 ft | 505 kts | 75° |
| 2026-04-27 06:27 | 51.86910 | 0.91017 | 37309 ft | 504 kts | 75° |
| 2026-04-27 06:28 | 51.88697 | 1.01998 | 37304 ft | 504 kts | 75° |
| 2026-04-27 06:28 | 51.90469 | 1.12966 | 37309 ft | 505 kts | 75° |
| 2026-04-27 06:29 | 51.92238 | 1.23982 | 37309 ft | 505 kts | 75° |
| 2026-04-27 06:29 | 51.93994 | 1.34998 | 37308 ft | 505 kts | 75° |
| 2026-04-27 06:30 | 51.95743 | 1.46034 | 36954 ft | 510 kts | 75° |
| 2026-04-27 06:30 | 51.96630 | 1.51658 | 36192 ft | 516 kts | 75° |
| 2026-04-27 06:30 | 51.97513 | 1.57276 | 35403 ft | 515 kts | 75° |
| 2026-04-27 06:31 | 51.98396 | 1.62918 | 34567 ft | 517 kts | 76° |
| 2026-04-27 06:31 | 51.99280 | 1.68586 | 33594 ft | 518 kts | 76° |
| 2026-04-27 06:31 | 52.00162 | 1.74265 | 32619 ft | 520 kts | 76° |
| 2026-04-27 06:31 | 52.01043 | 1.79947 | 31665 ft | 521 kts | 76° |
| 2026-04-27 06:32 | 52.01927 | 1.85674 | 30678 ft | 523 kts | 76° |
| 2026-04-27 06:32 | 52.02804 | 1.91380 | 29964 ft | 518 kts | 76° |
| 2026-04-27 06:32 | 52.03668 | 1.97016 | 29271 ft | 512 kts | 76° |
| 2026-04-27 06:32 | 52.04509 | 2.02522 | 28637 ft | 505 kts | 76° |
| 2026-04-27 06:33 | 52.05346 | 2.08020 | 28065 ft | 498 kts | 76° |
| 2026-04-27 06:33 | 52.06168 | 2.13437 | 27719 ft | 474 kts | 76° |
| 2026-04-27 06:33 | 52.06927 | 2.18458 | 27234 ft | 454 kts | 76° |
| 2026-04-27 06:33 | 52.07664 | 2.23345 | 26657 ft | 438 kts | 76° |
| 2026-04-27 06:34 | 52.08376 | 2.28083 | 26028 ft | 426 kts | 76° |
| 2026-04-27 06:34 | 52.09069 | 2.32712 | 25309 ft | 418 kts | 76° |
| 2026-04-27 06:34 | 52.09752 | 2.37270 | 24533 ft | 415 kts | 76° |
| 2026-04-27 06:34 | 52.10437 | 2.41864 | 23969 ft | 417 kts | 76° |
| 2026-04-27 06:35 | 52.11114 | 2.46420 | 23634 ft | 411 kts | 76° |
| 2026-04-27 06:35 | 52.12000 | 2.50779 | 23289 ft | 402 kts | 62° |
| 2026-04-27 06:35 | 52.13361 | 2.54703 | 22879 ft | 397 kts | 57° |
| 2026-04-27 06:35 | 52.14807 | 2.58524 | 22361 ft | 396 kts | 56° |
| 2026-04-27 06:36 | 52.16253 | 2.62319 | 21888 ft | 394 kts | 56° |
| 2026-04-27 06:36 | 52.17681 | 2.66113 | 21454 ft | 391 kts | 56° |
| 2026-04-27 06:36 | 52.19079 | 2.69889 | 21065 ft | 388 kts | 57° |
| 2026-04-27 06:36 | 52.20453 | 2.73651 | 20656 ft | 385 kts | 57° |
| 2026-04-27 06:37 | 52.21809 | 2.77393 | 20252 ft | 382 kts | 57° |
| 2026-04-27 06:37 | 52.23152 | 2.81122 | 19851 ft | 380 kts | 57° |
| 2026-04-27 06:37 | 52.24483 | 2.84828 | 19447 ft | 377 kts | 57° |
| 2026-04-27 06:37 | 52.25805 | 2.88517 | 19057 ft | 375 kts | 57° |
| 2026-04-27 06:38 | 52.27116 | 2.92183 | 18664 ft | 373 kts | 57° |
| 2026-04-27 06:38 | 52.28418 | 2.95826 | 18252 ft | 370 kts | 57° |
| 2026-04-27 06:38 | 52.29707 | 2.99440 | 17907 ft | 365 kts | 57° |
| 2026-04-27 06:38 | 52.30979 | 3.03009 | 17500 ft | 362 kts | 57° |
| 2026-04-27 06:39 | 52.32243 | 3.06562 | 17056 ft | 361 kts | 57° |
| 2026-04-27 06:39 | 52.33499 | 3.10097 | 16635 ft | 359 kts | 58° |
| 2026-04-27 06:39 | 52.34730 | 3.13565 | 16246 ft | 356 kts | 58° |
| 2026-04-27 06:39 | 52.35965 | 3.17049 | 15867 ft | 353 kts | 58° |
| 2026-04-27 06:40 | 52.37206 | 3.20556 | 15485 ft | 350 kts | 58° |
| 2026-04-27 06:40 | 52.38422 | 3.23998 | 15101 ft | 348 kts | 58° |
| 2026-04-27 06:40 | 52.39612 | 3.27370 | 14735 ft | 345 kts | 58° |
| 2026-04-27 06:40 | 52.40822 | 3.30803 | 14363 ft | 343 kts | 59° |
| 2026-04-27 06:41 | 52.42011 | 3.34181 | 13988 ft | 341 kts | 59° |
| 2026-04-27 06:41 | 52.43173 | 3.37487 | 13601 ft | 338 kts | 59° |
| 2026-04-27 06:41 | 52.44340 | 3.40813 | 13219 ft | 335 kts | 59° |
| 2026-04-27 06:41 | 52.45272 | 3.44312 | 12718 ft | 332 kts | 74° |
| 2026-04-27 06:42 | 52.45774 | 3.47934 | 12425 ft | 327 kts | 78° |
| 2026-04-27 06:42 | 52.46238 | 3.51528 | 12233 ft | 318 kts | 77° |
| 2026-04-27 06:42 | 52.46702 | 3.55026 | 12053 ft | 310 kts | 77° |
| 2026-04-27 06:42 | 52.47168 | 3.58447 | 11817 ft | 305 kts | 77° |
| 2026-04-27 06:43 | 52.47636 | 3.61815 | 11521 ft | 301 kts | 76° |
| 2026-04-27 06:43 | 52.48108 | 3.65172 | 11128 ft | 302 kts | 76° |
| 2026-04-27 06:43 | 52.48580 | 3.68519 | 10830 ft | 300 kts | 76° |
| 2026-04-27 06:43 | 52.49048 | 3.71824 | 10577 ft | 295 kts | 76° |
| 2026-04-27 06:44 | 52.49513 | 3.75115 | 10172 ft | 297 kts | 76° |
| 2026-04-27 06:44 | 52.49979 | 3.78408 | 9892 ft | 293 kts | 76° |
| 2026-04-27 06:44 | 52.50435 | 3.81641 | 9605 ft | 289 kts | 76° |
| 2026-04-27 06:44 | 52.50888 | 3.84855 | 9232 ft | 289 kts | 76° |
| 2026-04-27 06:45 | 52.51338 | 3.88061 | 8905 ft | 287 kts | 76° |
| 2026-04-27 06:45 | 52.51783 | 3.91236 | 8624 ft | 283 kts | 76° |
| 2026-04-27 06:45 | 52.52169 | 3.94387 | 8222 ft | 280 kts | 84° |
| 2026-04-27 06:45 | 52.51822 | 3.97525 | 7765 ft | 284 kts | 116° |
| 2026-04-27 06:46 | 52.50675 | 4.00092 | 7507 ft | 276 kts | 133° |
| 2026-04-27 06:46 | 52.49360 | 4.02348 | 7321 ft | 270 kts | 134° |
| 2026-04-27 06:46 | 52.48072 | 4.04546 | 7334 ft | 265 kts | 134° |
| 2026-04-27 06:46 | 52.46791 | 4.06731 | 7329 ft | 267 kts | 134° |
| 2026-04-27 06:47 | 52.45494 | 4.08946 | 7333 ft | 271 kts | 134° |
| 2026-04-27 06:47 | 52.44186 | 4.11181 | 7327 ft | 271 kts | 134° |
| 2026-04-27 06:47 | 52.42890 | 4.13400 | 7320 ft | 268 kts | 134° |
| 2026-04-27 06:47 | 52.41605 | 4.15603 | 7317 ft | 267 kts | 134° |
| 2026-04-27 06:48 | 52.40333 | 4.17783 | 7320 ft | 265 kts | 134° |
| 2026-04-27 06:48 | 52.39054 | 4.19976 | 7318 ft | 266 kts | 134° |
| 2026-04-27 06:48 | 52.37755 | 4.22202 | 7060 ft | 274 kts | 133° |
| 2026-04-27 06:48 | 52.36436 | 4.24460 | 6763 ft | 274 kts | 133° |
| 2026-04-27 06:49 | 52.35123 | 4.26707 | 6450 ft | 272 kts | 133° |
| 2026-04-27 06:49 | 52.33818 | 4.28938 | 6150 ft | 270 kts | 133° |
| 2026-04-27 06:49 | 52.32525 | 4.31148 | 5839 ft | 268 kts | 133° |
| 2026-04-27 06:49 | 52.31240 | 4.33344 | 5560 ft | 266 kts | 132° |
| 2026-04-27 06:50 | 52.29968 | 4.35515 | 5293 ft | 264 kts | 132° |
| 2026-04-27 06:50 | 52.28702 | 4.37672 | 4786 ft | 262 kts | 132° |
| 2026-04-27 06:50 | 52.27463 | 4.39775 | 4436 ft | 253 kts | 132° |
| 2026-04-27 06:50 | 52.26238 | 4.41834 | 4161 ft | 253 kts | 135° |
| 2026-04-27 06:51 | 52.24812 | 4.43535 | 3932 ft | 252 kts | 147° |
| 2026-04-27 06:51 | 52.23329 | 4.45012 | 3616 ft | 245 kts | 147° |
| 2026-04-27 06:51 | 52.21954 | 4.46525 | 3312 ft | 233 kts | 130° |
| 2026-04-27 06:51 | 52.21249 | 4.48775 | 3097 ft | 217 kts | 104° |
| 2026-04-27 06:52 | 52.20854 | 4.51098 | 2912 ft | 206 kts | 98° |
| 2026-04-27 06:52 | 52.21022 | 4.53274 | 2709 ft | 193 kts | 60° |
| 2026-04-27 06:52 | 52.21737 | 4.55047 | 2492 ft | 182 kts | 56° |
| 2026-04-27 06:52 | 52.22373 | 4.56731 | 2299 ft | 167 kts | 57° |
| 2026-04-27 06:53 | 52.22968 | 4.58300 | 2112 ft | 159 kts | 57° |
| 2026-04-27 06:53 | 52.23542 | 4.59799 | 2046 ft | 160 kts | 57° |
| 2026-04-27 06:53 | 52.24137 | 4.61342 | 1827 ft | 160 kts | 57° |
| 2026-04-27 06:53 | 52.24729 | 4.62875 | 1573 ft | 154 kts | 58° |
| 2026-04-27 06:54 | 52.25293 | 4.64341 | 1366 ft | 151 kts | 58° |
| 2026-04-27 06:54 | 52.25825 | 4.65717 | 1173 ft | 136 kts | 58° |
| 2026-04-27 06:54 | 52.26300 | 4.66950 | 1022 ft | 128 kts | 59° |
| 2026-04-27 06:54 | 52.26787 | 4.68217 | 829 ft | 134 kts | 59° |
| 2026-04-27 06:55 | 52.27279 | 4.69493 | 656 ft | 133 kts | 59° |
| 2026-04-27 06:55 | 52.27779 | 4.70789 | 463 ft | 134 kts | 59° |
| 2026-04-27 06:55 | 52.28274 | 4.72074 | 271 ft | 133 kts | 58° |
| 2026-04-27 06:55 | 52.28768 | 4.73345 | 87 ft | 132 kts | 58° |
| 2026-04-27 06:56 | 52.29250 | 4.74595 | 6 ft | 121 kts | 58° |
| 2026-04-27 06:56 | 52.29598 | 4.75511 | 3 ft | 70 kts | 58° |
| 2026-04-27 06:56 | 52.29771 | 4.75962 | 2 ft | 34 kts | 58° |
| 2026-04-27 06:56 | 52.29894 | 4.76282 | 1 ft | 32 kts | 58° |
| 2026-04-27 06:57 | 52.30022 | 4.76532 | 3 ft | 22 kts | 31° |
| 2026-04-27 06:57 | 52.30119 | 4.76618 | 4 ft | 11 kts | 27° |
| 2026-04-27 06:57 | 52.30185 | 4.76675 | 4 ft | 11 kts | 28° |
| 2026-04-27 06:57 | 52.30265 | 4.76742 | 4 ft | 14 kts | 34° |
| 2026-04-27 06:58 | 52.30333 | 4.76877 | 4 ft | 17 kts | 58° |
| 2026-04-27 06:58 | 52.30459 | 4.77205 | 4 ft | 21 kts | 58° |
| 2026-04-27 06:58 | 52.30538 | 4.77413 | 4 ft | 20 kts | 58° |
| 2026-04-27 06:59 | 52.30617 | 4.77562 | 4 ft | 16 kts | 30° |
| 2026-04-27 06:59 | 52.30733 | 4.77595 | 4 ft | 18 kts | 3° |
| 2026-04-27 06:59 | 52.30871 | 4.77608 | 4 ft | 21 kts | 3° |
| 2026-04-27 06:59 | 52.31014 | 4.77621 | 4 ft | 20 kts | 3° |
| 2026-04-27 07:00 | 52.31156 | 4.77633 | 4 ft | 19 kts | 3° |
| 2026-04-27 07:00 | 52.31247 | 4.77641 | 4 ft | 20 kts | 3° |
| 2026-04-27 07:00 | 52.31405 | 4.77650 | 4 ft | 17 kts | 353° |
| 2026-04-27 07:00 | 52.31509 | 4.77561 | 4 ft | 18 kts | 316° |
| 2026-04-27 07:01 | 52.31573 | 4.77384 | 4 ft | 19 kts | 279° |
| 2026-04-27 07:01 | 52.31571 | 4.77161 | 4 ft | 19 kts | 266° |
| 2026-04-27 07:01 | 52.31566 | 4.77036 | 4 ft | 17 kts | 266° |
| 2026-04-27 07:01 | 52.31558 | 4.76821 | 4 ft | 18 kts | 267° |
| 2026-04-27 07:02 | 52.31555 | 4.76722 | 4 ft | 10 kts | 267° |
| 2026-04-27 07:02 | 52.31551 | 4.76599 | 4 ft | 10 kts | 265° |
| 2026-04-27 07:02 | 52.31514 | 4.76506 | 4 ft | 9 kts | 218° |
| 2026-04-27 07:02 | 52.31471 | 4.76428 | 4 ft | 7 kts | 247° |
| 2026-04-27 07:03 | 52.31454 | 4.76371 | 4 ft | 6 kts | 237° |
| 2026-04-27 07:03 | 52.31416 | 4.76321 | 4 ft | 8 kts | 208° |
| 2026-04-27 07:03 | 52.31384 | 4.76294 | 4 ft | 4 kts | 207° |
| 2026-04-27 07:03 | 52.31372 | 4.76285 | 4 ft | 0 kts | 207° |